Time,TemperatureF,DewpointF,PressureIn,WindDirection,WindDirectionDegrees,WindSpeedMPH,WindSpeedGustMPH,Humidity,HourlyPrecipIn,Conditions,Clouds,dailyrainin,SoftwareType,DateUTC
2013-11-21 00:00:00,30.9,24.2,30.50,East,98,0.0,0.0,76,0.00,,---,0.00,VWS V14.01,2013-11-21 05:00:00,
2013-11-21 00:01:00,31.0,24.3,30.50,East,98,0.0,0.0,76,0.00,,---,0.00,VWS V14.01,2013-11-21 05:01:00,
2013-11-21 00:06:00,31.0,24.0,30.50,East,98,0.0,0.0,75,0.00,,---,0.00,VWS V14.01,2013-11-21 05:06:00,
2013-11-21 00:11:00,30.3,23.3,30.50,East,98,0.0,0.0,75,0.00,,---,0.00,VWS V14.01,2013-11-21 05:11:00,
2013-11-21 00:16:00,29.3,23.0,30.50,East,98,0.0,0.0,77,0.00,,---,0.00,VWS V14.01,2013-11-21 05:16:00,
2013-11-21 00:21:00,29.1,23.4,30.50,East,98,0.0,0.0,79,0.00,,---,0.00,VWS V14.01,2013-11-21 05:21:00,
2013-11-21 00:22:00,29.1,23.4,30.50,East,98,0.0,0.0,79,0.00,,---,0.00,VWS V14.01,2013-11-21 05:22:00,
2013-11-21 00:26:00,29.1,23.4,30.50,East,98,0.0,0.0,79,0.00,,---,0.00,VWS V14.01,2013-11-21 05:26:00,
2013-11-21 00:27:00,29.1,23.4,30.50,East,98,0.0,0.0,79,0.00,,---,0.00,VWS V14.01,2013-11-21 05:27:00,
2013-11-21 00:31:00,29.3,23.6,30.50,East,98,0.0,0.0,79,0.00,,---,0.00,VWS V14.01,2013-11-21 05:31:00,
2013-11-21 00:32:00,29.3,23.6,30.50,East,98,0.0,0.0,79,0.00,,---,0.00,VWS V14.01,2013-11-21 05:32:00,
2013-11-21 00:36:00,28.7,23.0,30.50,East,98,0.0,0.0,79,0.00,,---,0.00,VWS V14.01,2013-11-21 05:36:00,
2013-11-21 00:37:00,28.5,22.8,30.50,East,98,0.0,0.0,79,0.00,,---,0.00,VWS V14.01,2013-11-21 05:37:00,
2013-11-21 00:41:00,27.9,22.5,30.50,East,98,0.0,0.0,80,0.00,,---,0.00,VWS V14.01,2013-11-21 05:41:00,
2013-11-21 00:42:00,27.8,22.4,30.50,East,98,0.0,0.0,80,0.00,,---,0.00,VWS V14.01,2013-11-21 05:42:00,
2013-11-21 00:46:00,27.5,22.5,30.50,East,98,0.0,0.0,81,0.00,,---,0.00,VWS V14.01,2013-11-21 05:46:00,
2013-11-21 00:47:00,27.5,22.7,30.50,East,98,0.0,0.0,82,0.00,,---,0.00,VWS V14.01,2013-11-21 05:47:00,
2013-11-21 00:51:00,27.5,22.7,30.50,East,98,0.0,0.0,82,0.00,,---,0.00,VWS V14.01,2013-11-21 05:51:00,
2013-11-21 00:52:00,27.5,22.7,30.50,East,98,0.0,0.0,82,0.00,,---,0.00,VWS V14.01,2013-11-21 05:52:00,
2013-11-21 00:56:00,27.6,22.8,30.50,East,98,0.0,0.0,82,0.00,,---,0.00,VWS V14.01,2013-11-21 05:56:00,
2013-11-21 00:57:00,27.5,22.7,30.50,East,98,0.0,0.0,82,0.00,,---,0.00,VWS V14.01,2013-11-21 05:57:00,
2013-11-21 01:01:00,27.2,22.7,30.50,East,98,0.0,0.0,83,0.00,,---,0.00,VWS V14.01,2013-11-21 06:01:00,
2013-11-21 01:02:00,27.2,22.7,30.50,East,98,0.0,0.0,83,0.00,,---,0.00,VWS V14.01,2013-11-21 06:02:00,
2013-11-21 01:06:00,26.6,22.1,30.50,East,98,0.0,0.0,83,0.00,,---,0.00,VWS V14.01,2013-11-21 06:06:00,
2013-11-21 01:07:00,26.4,22.0,30.50,East,98,0.0,0.0,83,0.00,,---,0.00,VWS V14.01,2013-11-21 06:07:00,
2013-11-21 01:11:00,26.3,22.1,30.50,East,98,0.0,0.0,84,0.00,,---,0.00,VWS V14.01,2013-11-21 06:11:00,
2013-11-21 01:12:00,26.1,21.9,30.50,East,98,0.0,0.0,84,0.00,,---,0.00,VWS V14.01,2013-11-21 06:12:00,
2013-11-21 01:16:00,26.0,21.8,30.50,East,98,0.0,0.0,84,0.00,,---,0.00,VWS V14.01,2013-11-21 06:16:00,
2013-11-21 01:17:00,26.0,21.8,30.50,East,98,0.0,0.0,84,0.00,,---,0.00,VWS V14.01,2013-11-21 06:17:00,
2013-11-21 01:22:00,26.0,22.1,30.50,East,98,0.0,0.0,85,0.00,,---,0.00,VWS V14.01,2013-11-21 06:22:00,
2013-11-21 01:23:00,26.0,22.4,30.50,East,98,0.0,0.0,86,0.00,,---,0.00,VWS V14.01,2013-11-21 06:23:00,
2013-11-21 01:27:00,25.8,22.2,30.50,East,98,0.0,0.0,86,0.00,,---,0.00,VWS V14.01,2013-11-21 06:27:00,
2013-11-21 01:28:00,25.8,22.2,30.50,East,98,0.0,0.0,86,0.00,,---,0.00,VWS V14.01,2013-11-21 06:28:00,
2013-11-21 01:32:00,26.0,22.4,30.50,East,98,0.0,0.0,86,0.00,,---,0.00,VWS V14.01,2013-11-21 06:32:00,
2013-11-21 01:33:00,26.0,22.4,30.50,East,98,0.0,0.0,86,0.00,,---,0.00,VWS V14.01,2013-11-21 06:33:00,
2013-11-21 01:37:00,26.3,23.0,30.50,East,98,0.0,0.0,87,0.00,,---,0.00,VWS V14.01,2013-11-21 06:37:00,
2013-11-21 01:38:00,26.4,23.1,30.50,East,98,0.0,0.0,87,0.00,,---,0.00,VWS V14.01,2013-11-21 06:38:00,
2013-11-21 01:42:00,26.7,23.4,30.50,East,98,0.0,0.0,87,0.00,,---,0.00,VWS V14.01,2013-11-21 06:42:00,
2013-11-21 01:43:00,26.7,23.4,30.50,East,98,0.0,0.0,87,0.00,,---,0.00,VWS V14.01,2013-11-21 06:43:00,
2013-11-21 01:44:00,26.9,23.6,30.50,East,98,0.0,0.0,87,0.00,,---,0.00,VWS V14.01,2013-11-21 06:44:00,
2013-11-21 01:47:00,26.7,23.1,30.50,East,98,1.0,1.0,86,0.00,,---,0.00,VWS V14.01,2013-11-21 06:47:00,
2013-11-21 01:48:00,26.4,22.5,30.50,East,98,2.0,2.0,85,0.00,,---,0.00,VWS V14.01,2013-11-21 06:48:00,
2013-11-21 01:49:00,26.3,22.4,30.50,East,98,0.0,1.0,85,0.00,,---,0.00,VWS V14.01,2013-11-21 06:49:00,
2013-11-21 01:52:00,26.7,23.4,30.50,East,98,0.0,0.0,87,0.00,,---,0.00,VWS V14.01,2013-11-21 06:52:00,
2013-11-21 01:53:00,27.0,23.9,30.50,East,98,0.0,0.0,88,0.00,,---,0.00,VWS V14.01,2013-11-21 06:53:00,
2013-11-21 01:54:00,27.5,24.4,30.50,East,98,0.0,2.0,88,0.00,,---,0.00,VWS V14.01,2013-11-21 06:54:00,
2013-11-21 01:57:00,28.8,25.7,30.50,East,99,3.0,3.0,88,0.00,,---,0.00,VWS V14.01,2013-11-21 06:57:00,
2013-11-21 01:58:00,29.1,26.0,30.50,East,99,2.0,3.0,88,0.00,,---,0.00,VWS V14.01,2013-11-21 06:58:00,
2013-11-21 01:59:00,29.4,26.0,30.50,East,99,0.0,0.0,87,0.00,,---,0.00,VWS V14.01,2013-11-21 06:59:00,
2013-11-21 02:02:00,30.3,26.6,30.49,East,99,0.0,0.0,86,0.00,,---,0.00,VWS V14.01,2013-11-21 07:02:00,
2013-11-21 02:03:00,30.3,26.3,30.49,East,99,0.0,0.0,85,0.00,,---,0.00,VWS V14.01,2013-11-21 07:03:00,
2013-11-21 02:04:00,30.6,26.6,30.49,East,99,0.0,1.0,85,0.00,,---,0.00,VWS V14.01,2013-11-21 07:04:00,
2013-11-21 02:07:00,31.0,26.7,30.49,ESE,123,1.0,1.0,84,0.00,,---,0.00,VWS V14.01,2013-11-21 07:07:00,
2013-11-21 02:08:00,31.0,26.7,30.49,ESE,123,0.0,2.0,84,0.00,,---,0.00,VWS V14.01,2013-11-21 07:08:00,
2013-11-21 02:09:00,31.2,26.6,30.49,ESE,123,0.0,0.0,83,0.00,,---,0.00,VWS V14.01,2013-11-21 07:09:00,
2013-11-21 02:12:00,31.0,26.2,30.49,ESE,123,0.0,0.0,82,0.00,,---,0.00,VWS V14.01,2013-11-21 07:12:00,
2013-11-21 02:13:00,30.9,25.5,30.49,ESE,123,0.0,0.0,80,0.00,,---,0.00,VWS V14.01,2013-11-21 07:13:00,
2013-11-21 02:14:00,30.4,25.0,30.49,ESE,123,0.0,0.0,80,0.00,,---,0.00,VWS V14.01,2013-11-21 07:14:00,
2013-11-21 02:17:00,29.4,24.3,30.51,ESE,123,0.0,0.0,81,0.00,,---,0.00,VWS V14.01,2013-11-21 07:17:00,
2013-11-21 02:18:00,29.4,24.3,30.51,ESE,123,0.0,0.0,81,0.00,,---,0.00,VWS V14.01,2013-11-21 07:18:00,
2013-11-21 02:19:00,29.3,24.5,30.51,ESE,123,0.0,0.0,82,0.00,,---,0.00,VWS V14.01,2013-11-21 07:19:00,
2013-11-21 02:22:00,28.8,24.0,30.51,ESE,123,0.0,0.0,82,0.00,,---,0.00,VWS V14.01,2013-11-21 07:22:00,
2013-11-21 02:23:00,28.8,24.0,30.51,ESE,123,0.0,0.0,82,0.00,,---,0.00,VWS V14.01,2013-11-21 07:23:00,
2013-11-21 02:24:00,28.7,23.9,30.51,ESE,123,0.0,0.0,82,0.00,,---,0.00,VWS V14.01,2013-11-21 07:24:00,
2013-11-21 02:25:00,28.5,23.7,30.51,ESE,123,0.0,0.0,82,0.00,,---,0.00,VWS V14.01,2013-11-21 07:25:00,
2013-11-21 02:28:00,28.1,23.6,30.51,ESE,123,0.0,0.0,83,0.00,,---,0.00,VWS V14.01,2013-11-21 07:28:00,
2013-11-21 02:29:00,27.9,23.4,30.51,ESE,123,0.0,0.0,83,0.00,,---,0.00,VWS V14.01,2013-11-21 07:29:00,
2013-11-21 02:30:00,27.8,23.3,30.51,ESE,123,0.0,0.0,83,0.00,,---,0.00,VWS V14.01,2013-11-21 07:30:00,
2013-11-21 02:33:00,27.5,23.0,30.50,ESE,123,0.0,0.0,83,0.00,,---,0.00,VWS V14.01,2013-11-21 07:33:00,
2013-11-21 02:34:00,27.3,22.8,30.50,ESE,123,0.0,0.0,83,0.00,,---,0.00,VWS V14.01,2013-11-21 07:34:00,
2013-11-21 02:35:00,27.2,23.0,30.50,ESE,123,0.0,0.0,84,0.00,,---,0.00,VWS V14.01,2013-11-21 07:35:00,
2013-11-21 02:38:00,26.9,22.7,30.50,ESE,123,0.0,0.0,84,0.00,,---,0.00,VWS V14.01,2013-11-21 07:38:00,
2013-11-21 02:39:00,26.7,22.5,30.50,ESE,123,0.0,0.0,84,0.00,,---,0.00,VWS V14.01,2013-11-21 07:39:00,
2013-11-21 02:40:00,26.7,22.5,30.50,ESE,123,0.0,0.0,84,0.00,,---,0.00,VWS V14.01,2013-11-21 07:40:00,
2013-11-21 02:41:00,26.6,22.7,30.50,ESE,123,0.0,0.0,85,0.00,,---,0.00,VWS V14.01,2013-11-21 07:41:00,
2013-11-21 02:43:00,26.6,22.7,30.50,ESE,123,0.0,0.0,85,0.00,,---,0.00,VWS V14.01,2013-11-21 07:43:00,
2013-11-21 02:44:00,26.6,22.7,30.50,ESE,123,0.0,0.0,85,0.00,,---,0.00,VWS V14.01,2013-11-21 07:44:00,
2013-11-21 02:45:00,26.6,22.7,30.50,ESE,123,0.0,0.0,85,0.00,,---,0.00,VWS V14.01,2013-11-21 07:45:00,
2013-11-21 02:46:00,26.6,22.7,30.50,ESE,123,0.0,0.0,85,0.00,,---,0.00,VWS V14.01,2013-11-21 07:46:00,
2013-11-21 02:48:00,26.3,22.4,30.50,ESE,123,0.0,0.0,85,0.00,,---,0.00,VWS V14.01,2013-11-21 07:48:00,
2013-11-21 02:49:00,26.3,22.4,30.50,ESE,123,0.0,0.0,85,0.00,,---,0.00,VWS V14.01,2013-11-21 07:49:00,
2013-11-21 02:50:00,26.1,22.2,30.50,ESE,123,0.0,0.0,85,0.00,,---,0.00,VWS V14.01,2013-11-21 07:50:00,
2013-11-21 02:51:00,26.0,22.4,30.50,ESE,123,0.0,0.0,86,0.00,,---,0.00,VWS V14.01,2013-11-21 07:51:00,
2013-11-21 02:53:00,25.8,22.2,30.50,ESE,123,0.0,0.0,86,0.00,,---,0.00,VWS V14.01,2013-11-21 07:53:00,
2013-11-21 02:54:00,25.8,22.2,30.50,ESE,123,0.0,0.0,86,0.00,,---,0.00,VWS V14.01,2013-11-21 07:54:00,
2013-11-21 02:55:00,25.8,22.2,30.50,ESE,123,0.0,0.0,86,0.00,,---,0.00,VWS V14.01,2013-11-21 07:55:00,
2013-11-21 02:56:00,25.8,22.2,30.50,ESE,123,0.0,0.0,86,0.00,,---,0.00,VWS V14.01,2013-11-21 07:56:00,
2013-11-21 02:58:00,25.8,22.2,30.50,ESE,123,0.0,0.0,86,0.00,,---,0.00,VWS V14.01,2013-11-21 07:58:00,
2013-11-21 02:59:00,25.7,22.4,30.50,ESE,123,0.0,0.0,87,0.00,,---,0.00,VWS V14.01,2013-11-21 07:59:00,
2013-11-21 03:00:00,25.7,22.4,30.50,ESE,123,0.0,0.0,87,0.00,,---,0.00,VWS V14.01,2013-11-21 08:00:00,
2013-11-21 03:01:00,25.7,22.4,30.50,ESE,123,0.0,0.0,87,0.00,,---,0.00,VWS V14.01,2013-11-21 08:01:00,
2013-11-21 03:03:00,25.6,22.3,30.50,ESE,123,0.0,0.0,87,0.00,,---,0.00,VWS V14.01,2013-11-21 08:03:00,
2013-11-21 03:04:00,25.6,22.3,30.50,ESE,123,0.0,0.0,87,0.00,,---,0.00,VWS V14.01,2013-11-21 08:04:00,
2013-11-21 03:05:00,25.6,22.3,30.50,ESE,123,0.0,0.0,87,0.00,,---,0.00,VWS V14.01,2013-11-21 08:05:00,
2013-11-21 03:06:00,25.6,22.5,30.50,ESE,123,0.0,0.0,88,0.00,,---,0.00,VWS V14.01,2013-11-21 08:06:00,
2013-11-21 03:08:00,25.4,22.4,30.50,ESE,123,0.0,0.0,88,0.00,,---,0.00,VWS V14.01,2013-11-21 08:08:00,
2013-11-21 03:09:00,25.4,22.4,30.50,ESE,123,0.0,0.0,88,0.00,,---,0.00,VWS V14.01,2013-11-21 08:09:00,
2013-11-21 03:10:00,25.4,22.4,30.50,ESE,123,0.0,0.0,88,0.00,,---,0.00,VWS V14.01,2013-11-21 08:10:00,
2013-11-21 03:11:00,25.4,22.4,30.50,ESE,123,0.0,0.0,88,0.00,,---,0.00,VWS V14.01,2013-11-21 08:11:00,
2013-11-21 03:13:00,25.4,22.6,30.50,ESE,123,0.0,0.0,89,0.00,,---,0.00,VWS V14.01,2013-11-21 08:13:00,
2013-11-21 03:14:00,25.4,22.6,30.50,ESE,123,0.0,0.0,89,0.00,,---,0.00,VWS V14.01,2013-11-21 08:14:00,
2013-11-21 03:15:00,25.4,22.6,30.50,ESE,123,0.0,0.0,89,0.00,,---,0.00,VWS V14.01,2013-11-21 08:15:00,
2013-11-21 03:16:00,25.4,22.6,30.50,ESE,123,0.0,0.0,89,0.00,,---,0.00,VWS V14.01,2013-11-21 08:16:00,
2013-11-21 03:17:00,25.4,22.6,30.50,ESE,123,0.0,0.0,89,0.00,,---,0.00,VWS V14.01,2013-11-21 08:17:00,
2013-11-21 03:18:00,25.4,22.6,30.50,ESE,123,0.0,0.0,89,0.00,,---,0.00,VWS V14.01,2013-11-21 08:18:00,
2013-11-21 03:19:00,25.4,22.6,30.50,ESE,123,0.0,0.0,89,0.00,,---,0.00,VWS V14.01,2013-11-21 08:19:00,
2013-11-21 03:20:00,25.4,22.6,30.50,ESE,123,0.0,1.0,89,0.00,,---,0.00,VWS V14.01,2013-11-21 08:20:00,
2013-11-21 03:21:00,25.4,22.6,30.50,ESE,123,0.0,0.0,89,0.00,,---,0.00,VWS V14.01,2013-11-21 08:21:00,
2013-11-21 03:22:00,25.4,22.6,30.50,ESE,123,0.0,0.0,89,0.00,,---,0.00,VWS V14.01,2013-11-21 08:22:00,
2013-11-21 03:23:00,25.6,22.8,30.50,ESE,123,0.0,0.0,89,0.00,,---,0.00,VWS V14.01,2013-11-21 08:23:00,
2013-11-21 03:24:00,25.7,23.2,30.50,ESE,123,0.0,0.0,90,0.00,,---,0.00,VWS V14.01,2013-11-21 08:24:00,
2013-11-21 03:25:00,25.7,22.9,30.50,ESE,123,0.0,0.0,89,0.00,,---,0.00,VWS V14.01,2013-11-21 08:25:00,
2013-11-21 03:26:00,25.7,22.9,30.50,ESE,123,0.0,0.0,89,0.00,,---,0.00,VWS V14.01,2013-11-21 08:26:00,
2013-11-21 03:27:00,25.8,23.3,30.50,ESE,123,1.0,2.0,90,0.00,,---,0.00,VWS V14.01,2013-11-21 08:27:00,
2013-11-21 03:28:00,25.7,23.2,30.50,ESE,123,2.0,2.0,90,0.00,,---,0.00,VWS V14.01,2013-11-21 08:28:00,
2013-11-21 03:29:00,25.7,23.2,30.50,ESE,123,0.0,1.0,90,0.00,,---,0.00,VWS V14.01,2013-11-21 08:29:00,
2013-11-21 03:30:00,25.8,23.3,30.50,ESE,123,0.0,0.0,90,0.00,,---,0.00,VWS V14.01,2013-11-21 08:30:00,
2013-11-21 03:31:00,25.8,23.3,30.50,ESE,123,0.0,0.0,90,0.00,,---,0.00,VWS V14.01,2013-11-21 08:31:00,
2013-11-21 03:32:00,25.8,23.3,30.50,ESE,123,0.0,0.0,90,0.00,,---,0.00,VWS V14.01,2013-11-21 08:32:00,
2013-11-21 03:33:00,25.8,23.3,30.51,ESE,123,0.0,0.0,90,0.00,,---,0.00,VWS V14.01,2013-11-21 08:33:00,
2013-11-21 03:34:00,25.8,23.3,30.51,ESE,123,0.0,0.0,90,0.00,,---,0.00,VWS V14.01,2013-11-21 08:34:00,
2013-11-21 03:35:00,25.8,23.3,30.51,ESE,123,0.0,0.0,90,0.00,,---,0.00,VWS V14.01,2013-11-21 08:35:00,
2013-11-21 03:36:00,25.7,23.2,30.51,ESE,123,0.0,0.0,90,0.00,,---,0.00,VWS V14.01,2013-11-21 08:36:00,
2013-11-21 03:37:00,25.7,23.2,30.51,ESE,123,0.0,0.0,90,0.00,,---,0.00,VWS V14.01,2013-11-21 08:37:00,
2013-11-21 03:38:00,25.7,23.2,30.51,ESE,123,0.0,0.0,90,0.00,,---,0.00,VWS V14.01,2013-11-21 08:38:00,
2013-11-21 03:39:00,25.6,23.1,30.51,ESE,123,0.0,0.0,90,0.00,,---,0.00,VWS V14.01,2013-11-21 08:39:00,
2013-11-21 03:41:00,25.6,23.1,30.51,ESE,123,0.0,0.0,90,0.00,,---,0.00,VWS V14.01,2013-11-21 08:41:00,
2013-11-21 03:42:00,25.4,22.9,30.51,ESE,123,0.0,0.0,90,0.00,,---,0.00,VWS V14.01,2013-11-21 08:42:00,
2013-11-21 03:43:00,25.4,22.9,30.51,ESE,123,0.0,0.0,90,0.00,,---,0.00,VWS V14.01,2013-11-21 08:43:00,
2013-11-21 03:44:00,25.3,22.8,30.51,ESE,123,0.0,0.0,90,0.00,,---,0.00,VWS V14.01,2013-11-21 08:44:00,
2013-11-21 03:46:00,25.1,22.6,30.51,ESE,123,0.0,0.0,90,0.00,,---,0.00,VWS V14.01,2013-11-21 08:46:00,
2013-11-21 03:47:00,25.1,22.6,30.51,ESE,123,0.0,0.0,90,0.00,,---,0.00,VWS V14.01,2013-11-21 08:47:00,
2013-11-21 03:48:00,25.1,22.9,30.51,ESE,123,0.0,0.0,91,0.00,,---,0.00,VWS V14.01,2013-11-21 08:48:00,
2013-11-21 03:49:00,25.3,23.0,30.51,ESE,123,0.0,0.0,91,0.00,,---,0.00,VWS V14.01,2013-11-21 08:49:00,
2013-11-21 03:51:00,25.3,23.0,30.51,ESE,123,0.0,0.0,91,0.00,,---,0.00,VWS V14.01,2013-11-21 08:51:00,
2013-11-21 03:52:00,25.3,23.0,30.51,ESE,123,0.0,0.0,91,0.00,,---,0.00,VWS V14.01,2013-11-21 08:52:00,
2013-11-21 03:53:00,25.3,23.0,30.51,ESE,123,0.0,0.0,91,0.00,,---,0.00,VWS V14.01,2013-11-21 08:53:00,
2013-11-21 03:54:00,25.3,23.0,30.51,ESE,123,0.0,0.0,91,0.00,,---,0.00,VWS V14.01,2013-11-21 08:54:00,
2013-11-21 03:56:00,25.1,22.6,30.51,ESE,123,0.0,0.0,90,0.00,,---,0.00,VWS V14.01,2013-11-21 08:56:00,
2013-11-21 03:57:00,25.0,22.5,30.51,ESE,123,0.0,0.0,90,0.00,,---,0.00,VWS V14.01,2013-11-21 08:57:00,
2013-11-21 03:58:00,25.0,22.8,30.51,ESE,123,0.0,0.0,91,0.00,,---,0.00,VWS V14.01,2013-11-21 08:58:00,
2013-11-21 03:59:00,24.8,22.5,30.51,ESE,123,0.0,0.0,91,0.00,,---,0.00,VWS V14.01,2013-11-21 08:59:00,
2013-11-21 04:01:00,24.7,22.2,30.51,ESE,123,0.0,0.0,90,0.00,,---,0.00,VWS V14.01,2013-11-21 09:01:00,
2013-11-21 04:03:00,24.7,22.5,30.51,ESE,123,0.0,0.0,91,0.00,,---,0.00,VWS V14.01,2013-11-21 09:03:00,
2013-11-21 04:04:00,24.7,22.5,30.51,ESE,123,0.0,0.0,91,0.00,,---,0.00,VWS V14.01,2013-11-21 09:04:00,
2013-11-21 04:06:00,24.5,22.2,30.51,ESE,123,0.0,0.0,91,0.00,,---,0.00,VWS V14.01,2013-11-21 09:06:00,
2013-11-21 04:08:00,24.4,22.2,30.51,ESE,123,0.0,0.0,91,0.00,,---,0.00,VWS V14.01,2013-11-21 09:08:00,
2013-11-21 04:09:00,24.4,22.2,30.51,ESE,123,0.0,0.0,91,0.00,,---,0.00,VWS V14.01,2013-11-21 09:09:00,
2013-11-21 04:11:00,24.2,22.0,30.51,ESE,123,0.0,0.0,91,0.00,,---,0.00,VWS V14.01,2013-11-21 09:11:00,
2013-11-21 04:12:00,24.2,22.0,30.51,ESE,123,0.0,0.0,91,0.00,,---,0.00,VWS V14.01,2013-11-21 09:12:00,
2013-11-21 04:13:00,24.2,22.0,30.51,ESE,123,0.0,0.0,91,0.00,,---,0.00,VWS V14.01,2013-11-21 09:13:00,
2013-11-21 04:14:00,24.2,22.0,30.51,ESE,123,0.0,0.0,91,0.00,,---,0.00,VWS V14.01,2013-11-21 09:14:00,
2013-11-21 04:16:00,24.4,22.4,30.51,ESE,123,0.0,0.0,92,0.00,,---,0.00,VWS V14.01,2013-11-21 09:16:00,
2013-11-21 04:17:00,24.5,22.5,30.51,ESE,123,0.0,0.0,92,0.00,,---,0.00,VWS V14.01,2013-11-21 09:17:00,
2013-11-21 04:18:00,24.5,22.5,30.51,ESE,123,0.0,0.0,92,0.00,,---,0.00,VWS V14.01,2013-11-21 09:18:00,
2013-11-21 04:19:00,24.5,22.5,30.51,ESE,123,0.0,0.0,92,0.00,,---,0.00,VWS V14.01,2013-11-21 09:19:00,
2013-11-21 04:20:00,24.5,22.5,30.51,ESE,123,0.0,0.0,92,0.00,,---,0.00,VWS V14.01,2013-11-21 09:20:00,
2013-11-21 04:21:00,24.5,22.5,30.51,ESE,123,0.0,0.0,92,0.00,,---,0.00,VWS V14.01,2013-11-21 09:21:00,
2013-11-21 04:22:00,24.5,22.5,30.51,ESE,123,0.0,0.0,92,0.00,,---,0.00,VWS V14.01,2013-11-21 09:22:00,
2013-11-21 04:23:00,24.5,22.5,30.51,ESE,123,0.0,0.0,92,0.00,,---,0.00,VWS V14.01,2013-11-21 09:23:00,
2013-11-21 04:24:00,24.5,22.5,30.51,ESE,123,0.0,0.0,92,0.00,,---,0.00,VWS V14.01,2013-11-21 09:24:00,
2013-11-21 04:25:00,24.5,22.5,30.51,ESE,123,0.0,0.0,92,0.00,,---,0.00,VWS V14.01,2013-11-21 09:25:00,
2013-11-21 04:26:00,24.7,22.7,30.51,ESE,123,0.0,0.0,92,0.00,,---,0.00,VWS V14.01,2013-11-21 09:26:00,
2013-11-21 04:27:00,24.7,22.7,30.51,ESE,123,0.0,0.0,92,0.00,,---,0.00,VWS V14.01,2013-11-21 09:27:00,
2013-11-21 04:28:00,24.7,22.7,30.51,ESE,123,0.0,0.0,92,0.00,,---,0.00,VWS V14.01,2013-11-21 09:28:00,
2013-11-21 04:29:00,24.7,22.7,30.51,ESE,123,0.0,1.0,92,0.00,,---,0.00,VWS V14.01,2013-11-21 09:29:00,
2013-11-21 04:30:00,24.8,22.8,30.51,ESE,123,0.0,0.0,92,0.00,,---,0.00,VWS V14.01,2013-11-21 09:30:00,
2013-11-21 04:31:00,25.0,23.3,30.51,ESE,123,0.0,0.0,93,0.00,,---,0.00,VWS V14.01,2013-11-21 09:31:00,
2013-11-21 04:32:00,25.1,23.4,30.52,ESE,123,0.0,0.0,93,0.00,,---,0.00,VWS V14.01,2013-11-21 09:32:00,
2013-11-21 04:33:00,25.3,23.6,30.52,ESE,123,0.0,0.0,93,0.00,,---,0.00,VWS V14.01,2013-11-21 09:33:00,
2013-11-21 04:34:00,25.3,23.6,30.52,ESE,123,0.0,0.0,93,0.00,,---,0.00,VWS V14.01,2013-11-21 09:34:00,
2013-11-21 04:35:00,25.3,23.6,30.52,ESE,123,0.0,0.0,93,0.00,,---,0.00,VWS V14.01,2013-11-21 09:35:00,
2013-11-21 04:36:00,25.3,23.6,30.52,ESE,123,0.0,0.0,93,0.00,,---,0.00,VWS V14.01,2013-11-21 09:36:00,
2013-11-21 04:37:00,25.1,23.1,30.52,ESE,123,0.0,0.0,92,0.00,,---,0.00,VWS V14.01,2013-11-21 09:37:00,
2013-11-21 04:38:00,25.1,23.1,30.52,ESE,123,0.0,0.0,92,0.00,,---,0.00,VWS V14.01,2013-11-21 09:38:00,
2013-11-21 04:39:00,25.0,23.0,30.52,ESE,123,0.0,0.0,92,0.00,,---,0.00,VWS V14.01,2013-11-21 09:39:00,
2013-11-21 04:40:00,24.7,22.7,30.52,ESE,123,0.0,0.0,92,0.00,,---,0.00,VWS V14.01,2013-11-21 09:40:00,
2013-11-21 04:42:00,24.5,22.2,30.52,ESE,123,0.0,0.0,91,0.00,,---,0.00,VWS V14.01,2013-11-21 09:42:00,
2013-11-21 04:43:00,24.5,22.5,30.52,ESE,123,0.0,0.0,92,0.00,,---,0.00,VWS V14.01,2013-11-21 09:43:00,
2013-11-21 04:44:00,24.5,22.5,30.52,ESE,123,0.0,0.0,92,0.00,,---,0.00,VWS V14.01,2013-11-21 09:44:00,
2013-11-21 04:45:00,24.7,22.7,30.52,ESE,123,0.0,0.0,92,0.00,,---,0.00,VWS V14.01,2013-11-21 09:45:00,
2013-11-21 04:47:00,24.7,22.7,30.52,ESE,123,0.0,0.0,92,0.00,,---,0.00,VWS V14.01,2013-11-21 09:47:00,
2013-11-21 04:48:00,24.7,22.7,30.51,ESE,123,0.0,0.0,92,0.00,,---,0.00,VWS V14.01,2013-11-21 09:48:00,
2013-11-21 04:49:00,24.8,22.8,30.51,ESE,123,0.0,0.0,92,0.00,,---,0.00,VWS V14.01,2013-11-21 09:49:00,
2013-11-21 04:50:00,24.8,23.1,30.51,ESE,123,0.0,0.0,93,0.00,,---,0.00,VWS V14.01,2013-11-21 09:50:00,
2013-11-21 04:52:00,24.8,23.1,30.51,ESE,123,0.0,0.0,93,0.00,,---,0.00,VWS V14.01,2013-11-21 09:52:00,
2013-11-21 04:53:00,24.8,22.8,30.51,ESE,123,0.0,0.0,92,0.00,,---,0.00,VWS V14.01,2013-11-21 09:53:00,
2013-11-21 04:54:00,24.8,22.8,30.51,ESE,123,0.0,0.0,92,0.00,,---,0.00,VWS V14.01,2013-11-21 09:54:00,
2013-11-21 04:56:00,24.8,22.8,30.51,ESE,123,0.0,0.0,92,0.00,,---,0.00,VWS V14.01,2013-11-21 09:56:00,
2013-11-21 04:57:00,24.8,22.8,30.51,ESE,123,0.0,0.0,92,0.00,,---,0.00,VWS V14.01,2013-11-21 09:57:00,
2013-11-21 04:58:00,25.1,23.4,30.51,ESE,123,0.0,0.0,93,0.00,,---,0.00,VWS V14.01,2013-11-21 09:58:00,
2013-11-21 04:59:00,25.1,23.4,30.51,ESE,123,0.0,0.0,93,0.00,,---,0.00,VWS V14.01,2013-11-21 09:59:00,
2013-11-21 05:01:00,25.3,23.8,30.51,ESE,123,0.0,0.0,94,0.00,,---,0.00,VWS V14.01,2013-11-21 10:01:00,
2013-11-21 05:02:00,25.3,23.6,30.51,ESE,123,0.0,0.0,93,0.00,,---,0.00,VWS V14.01,2013-11-21 10:02:00,
2013-11-21 05:04:00,25.3,23.6,30.51,ESE,123,0.0,0.0,93,0.00,,---,0.00,VWS V14.01,2013-11-21 10:04:00,
2013-11-21 05:06:00,25.3,23.3,30.51,ESE,123,0.0,0.0,92,0.00,,---,0.00,VWS V14.01,2013-11-21 10:06:00,
2013-11-21 05:07:00,25.3,23.3,30.51,ESE,123,0.0,0.0,92,0.00,,---,0.00,VWS V14.01,2013-11-21 10:07:00,
2013-11-21 05:09:00,25.1,23.1,30.51,ESE,123,0.0,0.0,92,0.00,,---,0.00,VWS V14.01,2013-11-21 10:09:00,
2013-11-21 05:11:00,25.1,23.1,30.51,ESE,123,0.0,0.0,92,0.00,,---,0.00,VWS V14.01,2013-11-21 10:11:00,
2013-11-21 05:12:00,25.1,23.1,30.51,ESE,123,0.0,0.0,92,0.00,,---,0.00,VWS V14.01,2013-11-21 10:12:00,
2013-11-21 05:14:00,25.0,23.0,30.51,ESE,123,0.0,0.0,92,0.00,,---,0.00,VWS V14.01,2013-11-21 10:14:00,
2013-11-21 05:16:00,25.0,23.0,30.51,ESE,123,0.0,0.0,92,0.00,,---,0.00,VWS V14.01,2013-11-21 10:16:00,
2013-11-21 05:17:00,25.0,23.0,30.51,ESE,123,0.0,0.0,92,0.00,,---,0.00,VWS V14.01,2013-11-21 10:17:00,
2013-11-21 05:19:00,25.1,23.4,30.52,ESE,123,0.0,0.0,93,0.00,,---,0.00,VWS V14.01,2013-11-21 10:19:00,
2013-11-21 05:21:00,25.0,23.0,30.52,ESE,123,0.0,0.0,92,0.00,,---,0.00,VWS V14.01,2013-11-21 10:21:00,
2013-11-21 05:22:00,24.8,22.8,30.52,ESE,123,0.0,0.0,92,0.00,,---,0.00,VWS V14.01,2013-11-21 10:22:00,
2013-11-21 05:24:00,24.8,22.8,30.52,ESE,123,0.0,0.0,92,0.00,,---,0.00,VWS V14.01,2013-11-21 10:24:00,
2013-11-21 05:25:00,24.7,22.7,30.52,ESE,123,0.0,0.0,92,0.00,,---,0.00,VWS V14.01,2013-11-21 10:25:00,
2013-11-21 05:26:00,24.7,22.7,30.52,ESE,123,0.0,0.0,92,0.00,,---,0.00,VWS V14.01,2013-11-21 10:26:00,
2013-11-21 05:27:00,24.8,23.1,30.52,ESE,123,0.0,0.0,93,0.00,,---,0.00,VWS V14.01,2013-11-21 10:27:00,
2013-11-21 05:29:00,25.1,23.4,30.52,ESE,123,0.0,0.0,93,0.00,,---,0.00,VWS V14.01,2013-11-21 10:29:00,
2013-11-21 05:30:00,25.1,23.4,30.52,ESE,123,0.0,0.0,93,0.00,,---,0.00,VWS V14.01,2013-11-21 10:30:00,
2013-11-21 05:31:00,25.3,23.6,30.52,ESE,123,0.0,0.0,93,0.00,,---,0.00,VWS V14.01,2013-11-21 10:31:00,
2013-11-21 05:32:00,25.4,23.9,30.51,ESE,123,0.0,0.0,94,0.00,,---,0.00,VWS V14.01,2013-11-21 10:32:00,
2013-11-21 05:34:00,25.4,23.7,30.51,ESE,123,0.0,0.0,93,0.00,,---,0.00,VWS V14.01,2013-11-21 10:34:00,
2013-11-21 05:35:00,25.4,23.7,30.51,ESE,123,0.0,0.0,93,0.00,,---,0.00,VWS V14.01,2013-11-21 10:35:00,
2013-11-21 05:36:00,25.4,23.7,30.51,ESE,123,0.0,0.0,93,0.00,,---,0.00,VWS V14.01,2013-11-21 10:36:00,
2013-11-21 05:38:00,25.4,23.7,30.51,ESE,123,0.0,0.0,93,0.00,,---,0.00,VWS V14.01,2013-11-21 10:38:00,
2013-11-21 05:39:00,25.3,23.6,30.51,ESE,123,0.0,0.0,93,0.00,,---,0.00,VWS V14.01,2013-11-21 10:39:00,
2013-11-21 05:40:00,25.3,23.6,30.51,ESE,123,0.0,0.0,93,0.00,,---,0.00,VWS V14.01,2013-11-21 10:40:00,
2013-11-21 05:41:00,25.1,23.4,30.51,ESE,123,0.0,0.0,93,0.00,,---,0.00,VWS V14.01,2013-11-21 10:41:00,
2013-11-21 05:43:00,25.1,23.4,30.51,ESE,123,0.0,0.0,93,0.00,,---,0.00,VWS V14.01,2013-11-21 10:43:00,
2013-11-21 05:45:00,25.0,23.3,30.51,ESE,123,0.0,0.0,93,0.00,,---,0.00,VWS V14.01,2013-11-21 10:45:00,
2013-11-21 05:46:00,24.7,22.7,30.51,ESE,123,0.0,0.0,92,0.00,,---,0.00,VWS V14.01,2013-11-21 10:46:00,
2013-11-21 05:48:00,24.7,22.7,30.50,ESE,123,0.0,0.0,92,0.00,,---,0.00,VWS V14.01,2013-11-21 10:48:00,
2013-11-21 05:50:00,24.5,22.8,30.50,ESE,123,0.0,0.0,93,0.00,,---,0.00,VWS V14.01,2013-11-21 10:50:00,
2013-11-21 05:51:00,24.5,22.8,30.50,ESE,123,0.0,0.0,93,0.00,,---,0.00,VWS V14.01,2013-11-21 10:51:00,
2013-11-21 05:53:00,24.5,22.8,30.50,ESE,123,0.0,0.0,93,0.00,,---,0.00,VWS V14.01,2013-11-21 10:53:00,
2013-11-21 05:55:00,24.7,23.2,30.50,ESE,123,0.0,0.0,94,0.00,,---,0.00,VWS V14.01,2013-11-21 10:55:00,
2013-11-21 05:56:00,24.7,23.2,30.50,ESE,123,0.0,0.0,94,0.00,,---,0.00,VWS V14.01,2013-11-21 10:56:00,
2013-11-21 05:58:00,24.8,23.3,30.50,ESE,123,0.0,0.0,94,0.00,,---,0.00,VWS V14.01,2013-11-21 10:58:00,
2013-11-21 06:00:00,24.8,23.3,30.50,ESE,123,0.0,0.0,94,0.00,,---,0.00,VWS V14.01,2013-11-21 11:00:00,
2013-11-21 06:02:00,25.0,23.5,30.50,ESE,123,0.0,0.0,94,0.00,,---,0.00,VWS V14.01,2013-11-21 11:02:00,
2013-11-21 06:03:00,25.0,23.5,30.50,ESE,123,0.0,0.0,94,0.00,,---,0.00,VWS V14.01,2013-11-21 11:03:00,
2013-11-21 06:05:00,25.0,23.5,30.50,ESE,123,0.0,0.0,94,0.00,,---,0.00,VWS V14.01,2013-11-21 11:05:00,
2013-11-21 06:07:00,25.0,23.5,30.50,ESE,123,0.0,0.0,94,0.00,,---,0.00,VWS V14.01,2013-11-21 11:07:00,
2013-11-21 06:08:00,24.8,23.3,30.50,ESE,123,0.0,0.0,94,0.00,,---,0.00,VWS V14.01,2013-11-21 11:08:00,
2013-11-21 06:10:00,24.8,23.1,30.50,ESE,123,0.0,0.0,93,0.00,,---,0.00,VWS V14.01,2013-11-21 11:10:00,
2013-11-21 06:11:00,24.7,23.0,30.50,ESE,123,0.0,0.0,93,0.00,,---,0.00,VWS V14.01,2013-11-21 11:11:00,
2013-11-21 06:12:00,24.7,23.0,30.50,ESE,123,0.0,0.0,93,0.00,,---,0.00,VWS V14.01,2013-11-21 11:12:00,
2013-11-21 06:13:00,24.8,23.3,30.50,ESE,123,0.0,0.0,94,0.00,,---,0.00,VWS V14.01,2013-11-21 11:13:00,
2013-11-21 06:15:00,25.1,23.9,30.50,ESE,123,0.0,0.0,95,0.00,,---,0.00,VWS V14.01,2013-11-21 11:15:00,
2013-11-21 06:16:00,25.4,24.2,30.50,ESE,123,0.0,0.0,95,0.00,,---,0.00,VWS V14.01,2013-11-21 11:16:00,
2013-11-21 06:17:00,25.6,24.4,30.50,ESE,123,0.0,0.0,95,0.00,,---,0.00,VWS V14.01,2013-11-21 11:17:00,
2013-11-21 06:18:00,25.7,24.5,30.51,ESE,123,0.0,0.0,95,0.00,,---,0.00,VWS V14.01,2013-11-21 11:18:00,
2013-11-21 06:20:00,25.7,24.5,30.51,ESE,123,0.0,1.0,95,0.00,,---,0.00,VWS V14.01,2013-11-21 11:20:00,
2013-11-21 06:21:00,25.7,24.5,30.51,ESE,123,0.0,0.0,95,0.00,,---,0.00,VWS V14.01,2013-11-21 11:21:00,
2013-11-21 06:22:00,25.6,24.1,30.51,ESE,123,0.0,0.0,94,0.00,,---,0.00,VWS V14.01,2013-11-21 11:22:00,
2013-11-21 06:23:00,25.6,24.1,30.51,ESE,123,0.0,0.0,94,0.00,,---,0.00,VWS V14.01,2013-11-21 11:23:00,
2013-11-21 06:25:00,25.3,23.8,30.51,ESE,123,0.0,0.0,94,0.00,,---,0.00,VWS V14.01,2013-11-21 11:25:00,
2013-11-21 06:26:00,25.1,23.6,30.51,ESE,123,0.0,0.0,94,0.00,,---,0.00,VWS V14.01,2013-11-21 11:26:00,
2013-11-21 06:27:00,25.0,23.5,30.51,ESE,123,0.0,0.0,94,0.00,,---,0.00,VWS V14.01,2013-11-21 11:27:00,
2013-11-21 06:28:00,25.0,23.3,30.51,ESE,123,0.0,0.0,93,0.00,,---,0.00,VWS V14.01,2013-11-21 11:28:00,
2013-11-21 06:30:00,24.8,23.3,30.51,ESE,123,0.0,0.0,94,0.00,,---,0.00,VWS V14.01,2013-11-21 11:30:00,
2013-11-21 06:31:00,24.8,23.3,30.51,ESE,123,0.0,0.0,94,0.00,,---,0.00,VWS V14.01,2013-11-21 11:31:00,
2013-11-21 06:32:00,24.7,23.2,30.51,ESE,123,0.0,0.0,94,0.00,,---,0.00,VWS V14.01,2013-11-21 11:32:00,
2013-11-21 06:33:00,24.7,23.2,30.51,ESE,123,0.0,0.0,94,0.00,,---,0.00,VWS V14.01,2013-11-21 11:33:00,
2013-11-21 06:35:00,24.5,23.0,30.51,ESE,123,0.0,0.0,94,0.00,,---,0.00,VWS V14.01,2013-11-21 11:35:00,
2013-11-21 06:36:00,24.4,22.9,30.51,ESE,123,0.0,0.0,94,0.00,,---,0.00,VWS V14.01,2013-11-21 11:36:00,
2013-11-21 06:37:00,24.4,22.9,30.51,ESE,123,0.0,0.0,94,0.00,,---,0.00,VWS V14.01,2013-11-21 11:37:00,
2013-11-21 06:38:00,24.2,22.7,30.51,ESE,123,0.0,0.0,94,0.00,,---,0.00,VWS V14.01,2013-11-21 11:38:00,
2013-11-21 06:40:00,24.4,22.9,30.51,ESE,123,0.0,0.0,94,0.00,,---,0.00,VWS V14.01,2013-11-21 11:40:00,
2013-11-21 06:41:00,24.4,22.9,30.51,ESE,123,0.0,0.0,94,0.00,,---,0.00,VWS V14.01,2013-11-21 11:41:00,
2013-11-21 06:42:00,24.4,22.9,30.51,ESE,123,0.0,0.0,94,0.00,,---,0.00,VWS V14.01,2013-11-21 11:42:00,
2013-11-21 06:43:00,24.5,23.3,30.51,ESE,123,0.0,0.0,95,0.00,,---,0.00,VWS V14.01,2013-11-21 11:43:00,
2013-11-21 06:45:00,24.7,23.5,30.51,ESE,123,0.0,0.0,95,0.00,,---,0.00,VWS V14.01,2013-11-21 11:45:00,
2013-11-21 06:46:00,24.7,23.5,30.51,ESE,123,0.0,0.0,95,0.00,,---,0.00,VWS V14.01,2013-11-21 11:46:00,
2013-11-21 06:47:00,24.7,23.5,30.51,ESE,123,1.0,1.0,95,0.00,,---,0.00,VWS V14.01,2013-11-21 11:47:00,
2013-11-21 06:48:00,24.7,23.5,30.51,ESE,123,2.0,3.0,95,0.00,,---,0.00,VWS V14.01,2013-11-21 11:48:00,
2013-11-21 06:50:00,24.7,23.5,30.51,ESE,123,0.0,2.0,95,0.00,,---,0.00,VWS V14.01,2013-11-21 11:50:00,
2013-11-21 06:51:00,24.8,23.6,30.51,ESE,123,0.0,2.0,95,0.00,,---,0.00,VWS V14.01,2013-11-21 11:51:00,
2013-11-21 06:52:00,25.1,24.1,30.51,ESE,123,0.0,0.0,96,0.00,,---,0.00,VWS V14.01,2013-11-21 11:52:00,
2013-11-21 06:54:00,25.3,24.3,30.51,ESE,123,0.0,0.0,96,0.00,,---,0.00,VWS V14.01,2013-11-21 11:54:00,
2013-11-21 06:55:00,25.1,23.9,30.51,ESE,123,0.0,0.0,95,0.00,,---,0.00,VWS V14.01,2013-11-21 11:55:00,
2013-11-21 06:56:00,25.1,23.9,30.51,ESE,123,0.0,0.0,95,0.00,,---,0.00,VWS V14.01,2013-11-21 11:56:00,
2013-11-21 06:57:00,24.8,23.6,30.51,ESE,123,0.0,0.0,95,0.00,,---,0.00,VWS V14.01,2013-11-21 11:57:00,
2013-11-21 06:59:00,24.7,23.2,30.51,ESE,123,0.0,0.0,94,0.00,,---,0.00,VWS V14.01,2013-11-21 11:59:00,
2013-11-21 07:00:00,24.7,23.2,30.51,ESE,123,0.0,0.0,94,0.00,,---,0.00,VWS V14.01,2013-11-21 12:00:00,
2013-11-21 07:01:00,24.7,23.2,30.51,ESE,123,0.0,0.0,94,0.00,,---,0.00,VWS V14.01,2013-11-21 12:01:00,
2013-11-21 07:02:00,24.7,23.5,30.52,ESE,123,0.0,0.0,95,0.00,,---,0.00,VWS V14.01,2013-11-21 12:02:00,
2013-11-21 07:04:00,24.7,23.5,30.52,ESE,123,0.0,0.0,95,0.00,,---,0.00,VWS V14.01,2013-11-21 12:04:00,
2013-11-21 07:05:00,24.7,23.5,30.52,ESE,123,0.0,0.0,95,0.00,,---,0.00,VWS V14.01,2013-11-21 12:05:00,
2013-11-21 07:06:00,24.7,23.5,30.52,ESE,123,0.0,0.0,95,0.00,,---,0.00,VWS V14.01,2013-11-21 12:06:00,
2013-11-21 07:07:00,24.5,23.3,30.52,ESE,123,0.0,0.0,95,0.00,,---,0.00,VWS V14.01,2013-11-21 12:07:00,
2013-11-21 07:09:00,24.5,23.3,30.52,ESE,123,0.0,0.0,95,0.00,,---,0.00,VWS V14.01,2013-11-21 12:09:00,
2013-11-21 07:10:00,24.4,23.2,30.52,ESE,123,0.0,0.0,95,0.00,,---,0.00,VWS V14.01,2013-11-21 12:10:00,
2013-11-21 07:11:00,24.4,23.2,30.52,ESE,123,0.0,0.0,95,0.00,,---,0.00,VWS V14.01,2013-11-21 12:11:00,
2013-11-21 07:12:00,24.4,23.2,30.52,ESE,123,0.0,0.0,95,0.00,,---,0.00,VWS V14.01,2013-11-21 12:12:00,
2013-11-21 07:14:00,24.2,23.0,30.52,ESE,123,0.0,0.0,95,0.00,,---,0.00,VWS V14.01,2013-11-21 12:14:00,
2013-11-21 07:15:00,24.2,23.0,30.52,ESE,123,0.0,0.0,95,0.00,,---,0.00,VWS V14.01,2013-11-21 12:15:00,
2013-11-21 07:16:00,24.4,23.2,30.52,ESE,123,0.0,0.0,95,0.00,,---,0.00,VWS V14.01,2013-11-21 12:16:00,
2013-11-21 07:17:00,24.4,23.2,30.52,ESE,123,0.0,0.0,95,0.00,,---,0.00,VWS V14.01,2013-11-21 12:17:00,
2013-11-21 07:19:00,24.5,23.3,30.52,ESE,123,0.0,0.0,95,0.00,,---,0.00,VWS V14.01,2013-11-21 12:19:00,
2013-11-21 07:20:00,24.5,23.3,30.52,ESE,123,0.0,0.0,95,0.00,,---,0.00,VWS V14.01,2013-11-21 12:20:00,
2013-11-21 07:21:00,24.5,23.3,30.52,ESE,123,0.0,0.0,95,0.00,,---,0.00,VWS V14.01,2013-11-21 12:21:00,
2013-11-21 07:22:00,24.5,23.3,30.52,ESE,123,0.0,0.0,95,0.00,,---,0.00,VWS V14.01,2013-11-21 12:22:00,
2013-11-21 07:23:00,24.5,23.3,30.52,ESE,123,0.0,0.0,95,0.00,,---,0.00,VWS V14.01,2013-11-21 12:23:00,
2013-11-21 07:25:00,24.5,23.3,30.52,ESE,123,0.0,0.0,95,0.00,,---,0.00,VWS V14.01,2013-11-21 12:25:00,
2013-11-21 07:26:00,24.7,23.5,30.52,ESE,123,0.0,0.0,95,0.00,,---,0.00,VWS V14.01,2013-11-21 12:26:00,
2013-11-21 07:27:00,24.7,23.5,30.52,ESE,123,0.0,0.0,95,0.00,,---,0.00,VWS V14.01,2013-11-21 12:27:00,
2013-11-21 07:28:00,24.7,23.5,30.52,ESE,123,0.0,0.0,95,0.00,,---,0.00,VWS V14.01,2013-11-21 12:28:00,
2013-11-21 07:30:00,24.7,23.5,30.52,ESE,123,0.0,0.0,95,0.00,,---,0.00,VWS V14.01,2013-11-21 12:30:00,
2013-11-21 07:31:00,24.7,23.5,30.52,ESE,123,0.0,0.0,95,0.00,,---,0.00,VWS V14.01,2013-11-21 12:31:00,
2013-11-21 07:32:00,24.7,23.5,30.52,ESE,123,0.0,0.0,95,0.00,,---,0.00,VWS V14.01,2013-11-21 12:32:00,
2013-11-21 07:33:00,24.8,23.8,30.52,ESE,123,0.0,0.0,96,0.00,,---,0.00,VWS V14.01,2013-11-21 12:33:00,
2013-11-21 07:35:00,24.8,23.8,30.52,ESE,123,0.0,0.0,96,0.00,,---,0.00,VWS V14.01,2013-11-21 12:35:00,
2013-11-21 07:36:00,24.8,23.6,30.52,ESE,123,0.0,0.0,95,0.00,,---,0.00,VWS V14.01,2013-11-21 12:36:00,
2013-11-21 07:37:00,24.7,23.5,30.52,ESE,123,0.0,0.0,95,0.00,,---,0.00,VWS V14.01,2013-11-21 12:37:00,
2013-11-21 07:38:00,24.7,23.5,30.52,ESE,123,0.0,0.0,95,0.00,,---,0.00,VWS V14.01,2013-11-21 12:38:00,
2013-11-21 07:40:00,24.8,23.6,30.52,ESE,123,0.0,0.0,95,0.00,,---,0.00,VWS V14.01,2013-11-21 12:40:00,
2013-11-21 07:41:00,24.8,23.8,30.52,ESE,123,0.0,0.0,96,0.00,,---,0.00,VWS V14.01,2013-11-21 12:41:00,
2013-11-21 07:42:00,25.1,24.1,30.52,ESE,123,0.0,0.0,96,0.00,,---,0.00,VWS V14.01,2013-11-21 12:42:00,
2013-11-21 07:43:00,25.3,24.3,30.52,ESE,123,0.0,0.0,96,0.00,,---,0.00,VWS V14.01,2013-11-21 12:43:00,
2013-11-21 07:45:00,25.7,24.7,30.52,ESE,123,0.0,0.0,96,0.00,,---,0.00,VWS V14.01,2013-11-21 12:45:00,
2013-11-21 07:46:00,25.7,24.7,30.52,ESE,123,0.0,0.0,96,0.00,,---,0.00,VWS V14.01,2013-11-21 12:46:00,
2013-11-21 07:47:00,25.7,24.7,30.53,ESE,123,0.0,0.0,96,0.00,,---,0.00,VWS V14.01,2013-11-21 12:47:00,
2013-11-21 07:48:00,25.7,24.7,30.53,ESE,123,0.0,0.0,96,0.00,,---,0.00,VWS V14.01,2013-11-21 12:48:00,
2013-11-21 07:50:00,25.7,24.7,30.53,ESE,123,0.0,0.0,96,0.00,,---,0.00,VWS V14.01,2013-11-21 12:50:00,
2013-11-21 07:51:00,25.7,24.7,30.53,ESE,123,0.0,0.0,96,0.00,,---,0.00,VWS V14.01,2013-11-21 12:51:00,
2013-11-21 07:52:00,25.6,24.6,30.53,ESE,123,0.0,0.0,96,0.00,,---,0.00,VWS V14.01,2013-11-21 12:52:00,
2013-11-21 07:53:00,25.6,24.6,30.53,ESE,123,0.0,0.0,96,0.00,,---,0.00,VWS V14.01,2013-11-21 12:53:00,
2013-11-21 07:55:00,25.8,24.8,30.53,ESE,123,0.0,0.0,96,0.00,,---,0.00,VWS V14.01,2013-11-21 12:55:00,
2013-11-21 07:56:00,25.8,24.8,30.53,ESE,123,0.0,0.0,96,0.00,,---,0.00,VWS V14.01,2013-11-21 12:56:00,
2013-11-21 07:57:00,26.0,25.0,30.53,ESE,123,0.0,0.0,96,0.00,,---,0.00,VWS V14.01,2013-11-21 12:57:00,
2013-11-21 07:58:00,26.0,25.0,30.53,ESE,123,0.0,0.0,96,0.00,,---,0.00,VWS V14.01,2013-11-21 12:58:00,
2013-11-21 08:00:00,26.1,25.1,30.53,ESE,123,0.0,0.0,96,0.00,,---,0.00,VWS V14.01,2013-11-21 13:00:00,
2013-11-21 08:01:00,26.1,25.1,30.53,ESE,123,0.0,0.0,96,0.00,,---,0.00,VWS V14.01,2013-11-21 13:01:00,
2013-11-21 08:03:00,26.3,25.3,30.53,ESE,123,0.0,0.0,96,0.00,,---,0.00,VWS V14.01,2013-11-21 13:03:00,
2013-11-21 08:06:00,26.4,25.4,30.53,ESE,123,0.0,0.0,96,0.00,,---,0.00,VWS V14.01,2013-11-21 13:06:00,
2013-11-21 08:08:00,26.6,25.6,30.53,ESE,123,0.0,0.0,96,0.00,,---,0.00,VWS V14.01,2013-11-21 13:08:00,
2013-11-21 08:11:00,26.9,25.9,30.53,ESE,123,0.0,0.0,96,0.00,,---,0.00,VWS V14.01,2013-11-21 13:11:00,
2013-11-21 08:13:00,26.9,25.9,30.53,ESE,123,0.0,0.0,96,0.00,,---,0.00,VWS V14.01,2013-11-21 13:13:00,
2013-11-21 08:14:00,26.9,25.9,30.53,ESE,123,0.0,0.0,96,0.00,,---,0.00,VWS V14.01,2013-11-21 13:14:00,
2013-11-21 08:16:00,27.5,26.5,30.53,ESE,123,0.0,0.0,96,0.00,,---,0.00,VWS V14.01,2013-11-21 13:16:00,
2013-11-21 08:17:00,27.6,26.6,30.53,ESE,123,0.0,0.0,96,0.00,,---,0.00,VWS V14.01,2013-11-21 13:17:00,
2013-11-21 08:18:00,27.8,26.8,30.52,ESE,123,0.0,0.0,96,0.00,,---,0.00,VWS V14.01,2013-11-21 13:18:00,
2013-11-21 08:19:00,27.8,26.8,30.52,ESE,123,0.0,0.0,96,0.00,,---,0.00,VWS V14.01,2013-11-21 13:19:00,
2013-11-21 08:21:00,28.2,27.2,30.52,ESE,123,0.0,0.0,96,0.00,,---,0.00,VWS V14.01,2013-11-21 13:21:00,
2013-11-21 08:22:00,28.4,27.4,30.52,ESE,123,0.0,0.0,96,0.00,,---,0.00,VWS V14.01,2013-11-21 13:22:00,
2013-11-21 08:23:00,28.7,27.7,30.52,ESE,123,0.0,0.0,96,0.00,,---,0.00,VWS V14.01,2013-11-21 13:23:00,
2013-11-21 08:24:00,28.8,27.8,30.52,ESE,123,0.0,0.0,96,0.00,,---,0.00,VWS V14.01,2013-11-21 13:24:00,
2013-11-21 08:26:00,29.7,29.0,30.52,ESE,123,0.0,0.0,97,0.00,,---,0.00,VWS V14.01,2013-11-21 13:26:00,
2013-11-21 08:27:00,29.8,29.0,30.52,ESE,123,0.0,0.0,97,0.00,,---,0.00,VWS V14.01,2013-11-21 13:27:00,
2013-11-21 08:28:00,30.3,29.5,30.52,ESE,123,0.0,0.0,97,0.00,,---,0.00,VWS V14.01,2013-11-21 13:28:00,
2013-11-21 08:29:00,30.7,30.0,30.52,ESE,123,0.0,0.0,97,0.00,,---,0.00,VWS V14.01,2013-11-21 13:29:00,
2013-11-21 08:31:00,30.9,29.9,30.52,ESE,123,0.0,0.0,96,0.00,,---,0.00,VWS V14.01,2013-11-21 13:31:00,
2013-11-21 08:32:00,30.9,29.9,30.52,ESE,123,0.0,0.0,96,0.00,,---,0.00,VWS V14.01,2013-11-21 13:32:00,
2013-11-21 08:33:00,30.9,29.6,30.52,ESE,123,0.0,0.0,95,0.00,,---,0.00,VWS V14.01,2013-11-21 13:33:00,
2013-11-21 08:34:00,30.9,29.6,30.52,ESE,123,0.0,0.0,95,0.00,,---,0.00,VWS V14.01,2013-11-21 13:34:00,
2013-11-21 08:36:00,31.0,29.5,30.52,ESE,123,0.0,0.0,94,0.00,,---,0.00,VWS V14.01,2013-11-21 13:36:00,
2013-11-21 08:37:00,31.2,29.7,30.52,ESE,123,0.0,0.0,94,0.00,,---,0.00,VWS V14.01,2013-11-21 13:37:00,
2013-11-21 08:38:00,31.2,29.7,30.52,ESE,123,0.0,0.0,94,0.00,,---,0.00,VWS V14.01,2013-11-21 13:38:00,
2013-11-21 08:39:00,31.2,29.4,30.52,ESE,123,0.0,0.0,93,0.00,,---,0.00,VWS V14.01,2013-11-21 13:39:00,
2013-11-21 08:41:00,31.0,29.2,30.52,ESE,123,0.0,0.0,93,0.00,,---,0.00,VWS V14.01,2013-11-21 13:41:00,
2013-11-21 08:42:00,31.0,29.0,30.52,ESE,123,0.0,0.0,92,0.00,,---,0.00,VWS V14.01,2013-11-21 13:42:00,
2013-11-21 08:43:00,30.9,28.9,30.52,ESE,123,0.0,0.0,92,0.00,,---,0.00,VWS V14.01,2013-11-21 13:43:00,
2013-11-21 08:44:00,30.9,28.9,30.52,ESE,123,0.0,0.0,92,0.00,,---,0.00,VWS V14.01,2013-11-21 13:44:00,
2013-11-21 08:46:00,30.9,28.9,30.52,ESE,123,0.0,1.0,92,0.00,,---,0.00,VWS V14.01,2013-11-21 13:46:00,
2013-11-21 08:47:00,30.6,28.0,30.52,ESE,123,0.0,1.0,90,0.00,,---,0.00,VWS V14.01,2013-11-21 13:47:00,
2013-11-21 08:48:00,30.6,28.0,30.52,ESE,123,0.0,0.0,90,0.00,,---,0.00,VWS V14.01,2013-11-21 13:48:00,
2013-11-21 08:49:00,30.7,28.1,30.52,ESE,123,0.0,0.0,90,0.00,,---,0.00,VWS V14.01,2013-11-21 13:49:00,
2013-11-21 08:51:00,31.2,28.9,30.52,ESE,123,0.0,0.0,91,0.00,,---,0.00,VWS V14.01,2013-11-21 13:51:00,
2013-11-21 08:52:00,31.5,29.2,30.52,ESE,123,0.0,0.0,91,0.00,,---,0.00,VWS V14.01,2013-11-21 13:52:00,
2013-11-21 08:53:00,31.6,29.0,30.52,ESE,123,0.0,0.0,90,0.00,,---,0.00,VWS V14.01,2013-11-21 13:53:00,
2013-11-21 08:54:00,31.6,28.7,30.52,ESE,123,0.0,0.0,89,0.00,,---,0.00,VWS V14.01,2013-11-21 13:54:00,
2013-11-21 08:56:00,31.9,29.0,30.52,ESE,123,0.0,0.0,89,0.00,,---,0.00,VWS V14.01,2013-11-21 13:56:00,
2013-11-21 08:57:00,32.1,29.2,30.52,ESE,123,0.0,0.0,89,0.00,,---,0.00,VWS V14.01,2013-11-21 13:57:00,
2013-11-21 08:58:00,32.4,29.2,30.52,ESE,123,0.0,0.0,88,0.00,,---,0.00,VWS V14.01,2013-11-21 13:58:00,
2013-11-21 08:59:00,32.4,29.2,30.52,ESE,123,0.0,0.0,88,0.00,,---,0.00,VWS V14.01,2013-11-21 13:59:00,
2013-11-21 09:01:00,32.7,29.3,30.52,ESE,123,0.0,0.0,87,0.00,,---,0.00,VWS V14.01,2013-11-21 14:01:00,
2013-11-21 09:02:00,32.7,29.3,30.52,ESE,123,0.0,0.0,87,0.00,,---,0.00,VWS V14.01,2013-11-21 14:02:00,
2013-11-21 09:03:00,32.8,29.1,30.52,ESE,123,0.0,0.0,86,0.00,,---,0.00,VWS V14.01,2013-11-21 14:03:00,
2013-11-21 09:04:00,32.8,29.1,30.52,ESE,123,0.0,0.0,86,0.00,,---,0.00,VWS V14.01,2013-11-21 14:04:00,
2013-11-21 09:06:00,32.9,29.2,30.52,ESE,123,0.0,0.0,86,0.00,,---,0.00,VWS V14.01,2013-11-21 14:06:00,
2013-11-21 09:07:00,33.1,29.4,30.52,ESE,123,0.0,0.0,86,0.00,,---,0.00,VWS V14.01,2013-11-21 14:07:00,
2013-11-21 09:09:00,33.1,29.4,30.52,ESE,123,0.0,0.0,86,0.00,,---,0.00,VWS V14.01,2013-11-21 14:09:00,
2013-11-21 09:10:00,33.2,29.5,30.52,ESE,123,0.0,0.0,86,0.00,,---,0.00,VWS V14.01,2013-11-21 14:10:00,
2013-11-21 09:11:00,33.5,29.8,30.52,ESE,123,0.0,0.0,86,0.00,,---,0.00,VWS V14.01,2013-11-21 14:11:00,
2013-11-21 09:12:00,33.7,30.0,30.52,ESE,123,0.0,0.0,86,0.00,,---,0.00,VWS V14.01,2013-11-21 14:12:00,
2013-11-21 09:14:00,33.8,30.1,30.52,ESE,123,0.0,0.0,86,0.00,,---,0.00,VWS V14.01,2013-11-21 14:14:00,
2013-11-21 09:15:00,34.1,30.4,30.52,ESE,123,0.0,0.0,86,0.00,,---,0.00,VWS V14.01,2013-11-21 14:15:00,
2013-11-21 09:16:00,34.3,30.3,30.52,ESE,123,0.0,0.0,85,0.00,,---,0.00,VWS V14.01,2013-11-21 14:16:00,
2013-11-21 09:17:00,34.3,30.0,30.52,ESE,123,0.0,0.0,84,0.00,,---,0.00,VWS V14.01,2013-11-21 14:17:00,
2013-11-21 09:19:00,34.4,30.1,30.52,ESE,123,0.0,0.0,84,0.00,,---,0.00,VWS V14.01,2013-11-21 14:19:00,
2013-11-21 09:20:00,34.4,30.1,30.52,ESE,123,0.0,0.0,84,0.00,,---,0.00,VWS V14.01,2013-11-21 14:20:00,
2013-11-21 09:21:00,34.4,30.1,30.52,ESE,123,0.0,0.0,84,0.00,,---,0.00,VWS V14.01,2013-11-21 14:21:00,
2013-11-21 09:22:00,34.4,30.1,30.52,ESE,123,0.0,0.0,84,0.00,,---,0.00,VWS V14.01,2013-11-21 14:22:00,
2013-11-21 09:23:00,34.4,30.1,30.52,ESE,123,0.0,0.0,84,0.00,,---,0.00,VWS V14.01,2013-11-21 14:23:00,
2013-11-21 09:24:00,34.6,30.3,30.52,ESE,123,0.0,0.0,84,0.00,,---,0.00,VWS V14.01,2013-11-21 14:24:00,
2013-11-21 09:25:00,34.9,30.9,30.52,ESE,123,0.0,0.0,85,0.00,,---,0.00,VWS V14.01,2013-11-21 14:25:00,
2013-11-21 09:26:00,34.9,30.6,30.52,ESE,123,0.0,0.0,84,0.00,,---,0.00,VWS V14.01,2013-11-21 14:26:00,
2013-11-21 09:28:00,35.0,30.7,30.52,ESE,123,0.0,0.0,84,0.00,,---,0.00,VWS V14.01,2013-11-21 14:28:00,
2013-11-21 09:29:00,35.0,30.7,30.52,ESE,123,0.0,0.0,84,0.00,,---,0.00,VWS V14.01,2013-11-21 14:29:00,
2013-11-21 09:30:00,35.0,30.7,30.52,ESE,123,0.0,0.0,84,0.00,,---,0.00,VWS V14.01,2013-11-21 14:30:00,
2013-11-21 09:32:00,35.0,30.7,30.52,ESE,123,0.0,0.0,84,0.00,,---,0.00,VWS V14.01,2013-11-21 14:32:00,
2013-11-21 09:33:00,35.0,30.4,30.51,ESE,123,0.0,0.0,83,0.00,,---,0.00,VWS V14.01,2013-11-21 14:33:00,
2013-11-21 09:34:00,35.5,31.1,30.51,ESE,123,0.0,0.0,84,0.00,,---,0.00,VWS V14.01,2013-11-21 14:34:00,
2013-11-21 09:35:00,35.6,31.2,30.51,ESE,123,0.0,0.0,84,0.00,,---,0.00,VWS V14.01,2013-11-21 14:35:00,
2013-11-21 09:37:00,36.2,31.8,30.51,ESE,123,0.0,0.0,84,0.00,,---,0.00,VWS V14.01,2013-11-21 14:37:00,
2013-11-21 09:38:00,36.3,31.9,30.51,ESE,123,3.0,3.0,84,0.00,,---,0.00,VWS V14.01,2013-11-21 14:38:00,
2013-11-21 09:39:00,36.2,31.5,30.51,ESE,122,3.0,3.0,83,0.00,,---,0.00,VWS V14.01,2013-11-21 14:39:00,
2013-11-21 09:40:00,36.2,31.5,30.51,ESE,122,2.0,3.0,83,0.00,,---,0.00,VWS V14.01,2013-11-21 14:40:00,
2013-11-21 09:41:00,36.3,31.3,30.51,ESE,122,0.0,0.0,82,0.00,,---,0.00,VWS V14.01,2013-11-21 14:41:00,
2013-11-21 09:42:00,36.5,31.8,30.51,ESE,122,0.0,0.0,83,0.00,,---,0.00,VWS V14.01,2013-11-21 14:42:00,
2013-11-21 09:43:00,36.5,31.5,30.51,ESE,122,0.0,0.0,82,0.00,,---,0.00,VWS V14.01,2013-11-21 14:43:00,
2013-11-21 09:44:00,36.5,31.5,30.51,ESE,122,0.0,1.0,82,0.00,,---,0.00,VWS V14.01,2013-11-21 14:44:00,
2013-11-21 09:45:00,36.5,31.5,30.51,ESE,122,2.0,2.0,82,0.00,,---,0.00,VWS V14.01,2013-11-21 14:45:00,
2013-11-21 09:46:00,36.5,31.5,30.51,ESE,122,1.0,2.0,82,0.00,,---,0.00,VWS V14.01,2013-11-21 14:46:00,
2013-11-21 09:47:00,36.8,31.8,30.51,ESE,122,0.0,0.0,82,0.00,,---,0.00,VWS V14.01,2013-11-21 14:47:00,
2013-11-21 09:48:00,36.9,31.9,30.51,ESE,122,0.0,1.0,82,0.00,,---,0.00,VWS V14.01,2013-11-21 14:48:00,
2013-11-21 09:50:00,37.0,32.0,30.51,ESE,122,0.0,2.0,82,0.00,,---,0.00,VWS V14.01,2013-11-21 14:50:00,
2013-11-21 09:51:00,37.2,32.2,30.51,SE,125,0.0,1.0,82,0.00,,---,0.00,VWS V14.01,2013-11-21 14:51:00,
2013-11-21 09:52:00,37.6,32.6,30.51,SE,125,1.0,1.0,82,0.00,,---,0.00,VWS V14.01,2013-11-21 14:52:00,
2013-11-21 09:53:00,37.6,32.6,30.51,SE,125,2.0,2.0,82,0.00,,---,0.00,VWS V14.01,2013-11-21 14:53:00,
2013-11-21 09:55:00,37.6,32.0,30.51,ESE,115,4.0,4.0,80,0.00,,---,0.00,VWS V14.01,2013-11-21 14:55:00,
2013-11-21 09:56:00,37.5,31.9,30.51,ESE,115,1.0,3.0,80,0.00,,---,0.00,VWS V14.01,2013-11-21 14:56:00,
2013-11-21 09:57:00,37.6,32.0,30.51,ESE,115,0.0,0.0,80,0.00,,---,0.00,VWS V14.01,2013-11-21 14:57:00,
2013-11-21 09:58:00,37.6,32.0,30.51,ESE,115,1.0,1.0,80,0.00,,---,0.00,VWS V14.01,2013-11-21 14:58:00,
2013-11-21 10:00:00,37.6,32.0,30.51,ESE,115,0.0,2.0,80,0.00,,---,0.00,VWS V14.01,2013-11-21 15:00:00,
2013-11-21 10:01:00,37.9,32.6,30.51,ESE,115,0.0,0.0,81,0.00,,---,0.00,VWS V14.01,2013-11-21 15:01:00,
2013-11-21 10:02:00,38.2,33.2,30.51,ESE,120,1.0,4.0,82,0.00,,---,0.00,VWS V14.01,2013-11-21 15:02:00,
2013-11-21 10:03:00,38.3,33.0,30.51,ESE,120,0.0,2.0,81,0.00,,---,0.00,VWS V14.01,2013-11-21 15:03:00,
2013-11-21 10:04:00,38.5,32.6,30.51,ESE,120,0.0,0.0,79,0.00,,---,0.00,VWS V14.01,2013-11-21 15:04:00,
2013-11-21 10:05:00,38.5,32.6,30.51,ESE,120,0.0,0.0,79,0.00,,---,0.00,VWS V14.01,2013-11-21 15:05:00,
2013-11-21 10:06:00,38.3,32.0,30.51,ESE,120,0.0,0.0,78,0.00,,---,0.00,VWS V14.01,2013-11-21 15:06:00,
2013-11-21 10:07:00,38.6,33.0,30.51,ESE,120,0.0,0.0,80,0.00,,---,0.00,VWS V14.01,2013-11-21 15:07:00,
2013-11-21 10:08:00,38.8,32.9,30.51,ESE,120,0.0,0.0,79,0.00,,---,0.00,VWS V14.01,2013-11-21 15:08:00,
2013-11-21 10:09:00,39.1,32.8,30.51,SSW,194,2.0,2.0,78,0.00,,---,0.00,VWS V14.01,2013-11-21 15:09:00,
2013-11-21 10:10:00,39.3,33.0,30.51,South,176,2.0,4.0,78,0.00,,---,0.00,VWS V14.01,2013-11-21 15:10:00,
2013-11-21 10:11:00,39.5,32.9,30.51,ESE,119,5.0,5.0,77,0.00,,---,0.00,VWS V14.01,2013-11-21 15:11:00,
2013-11-21 10:12:00,39.5,32.6,30.51,ESE,122,0.0,0.0,76,0.00,,---,0.00,VWS V14.01,2013-11-21 15:12:00,
2013-11-21 10:13:00,39.3,32.4,30.51,SSE,163,5.0,5.0,76,0.00,,---,0.00,VWS V14.01,2013-11-21 15:13:00,
2013-11-21 10:14:00,39.2,32.0,30.51,South,171,4.0,5.0,75,0.00,,---,0.00,VWS V14.01,2013-11-21 15:14:00,
2013-11-21 10:15:00,39.2,32.0,30.51,SSW,201,6.0,6.0,75,0.00,,---,0.00,VWS V14.01,2013-11-21 15:15:00,
2013-11-21 10:16:00,39.3,32.7,30.51,South,176,4.0,5.0,77,0.00,,---,0.00,VWS V14.01,2013-11-21 15:16:00,
2013-11-21 10:17:00,39.5,32.2,30.50,South,190,0.0,0.0,75,0.00,,---,0.00,VWS V14.01,2013-11-21 15:17:00,
2013-11-21 10:18:00,39.6,32.7,30.50,South,171,3.0,5.0,76,0.00,,---,0.00,VWS V14.01,2013-11-21 15:18:00,
2013-11-21 10:19:00,39.5,32.2,30.50,SSE,157,4.0,5.0,75,0.00,,---,0.00,VWS V14.01,2013-11-21 15:19:00,
2013-11-21 10:20:00,39.3,32.0,30.50,South,184,6.0,6.0,75,0.00,,---,0.00,VWS V14.01,2013-11-21 15:20:00,
2013-11-21 10:21:00,39.5,32.6,30.50,South,182,3.0,3.0,76,0.00,,---,0.00,VWS V14.01,2013-11-21 15:21:00,
2013-11-21 10:22:00,39.6,32.3,30.50,SSE,153,4.0,10.0,75,0.00,,---,0.00,VWS V14.01,2013-11-21 15:22:00,
2013-11-21 10:24:00,39.8,32.5,30.50,SSE,165,4.0,4.0,75,0.00,,---,0.00,VWS V14.01,2013-11-21 15:24:00,
2013-11-21 10:25:00,39.9,32.6,30.50,SSE,159,2.0,6.0,75,0.00,,---,0.00,VWS V14.01,2013-11-21 15:25:00,
2013-11-21 10:26:00,40.1,33.2,30.50,ESE,123,4.0,6.0,76,0.00,,---,0.00,VWS V14.01,2013-11-21 15:26:00,
2013-11-21 10:27:00,39.9,33.0,30.50,ESE,121,5.0,7.0,76,0.00,,---,0.00,VWS V14.01,2013-11-21 15:27:00,
2013-11-21 10:28:00,39.9,32.6,30.50,ESE,121,0.0,5.0,75,0.00,,---,0.00,VWS V14.01,2013-11-21 15:28:00,
2013-11-21 10:29:00,39.8,32.5,30.50,ESE,121,1.0,1.0,75,0.00,,---,0.00,VWS V14.01,2013-11-21 15:29:00,
2013-11-21 10:30:00,39.9,32.6,30.50,SE,126,0.0,1.0,75,0.00,,---,0.00,VWS V14.01,2013-11-21 15:30:00,
2013-11-21 10:32:00,40.2,33.2,30.50,South,171,2.0,5.0,76,0.00,,---,0.00,VWS V14.01,2013-11-21 15:32:00,
2013-11-21 10:33:00,40.3,33.3,30.49,SSW,200,6.0,9.0,76,0.00,,---,0.00,VWS V14.01,2013-11-21 15:33:00,
2013-11-21 10:34:00,40.6,33.6,30.49,South,181,2.0,6.0,76,0.00,,---,0.00,VWS V14.01,2013-11-21 15:34:00,
2013-11-21 10:35:00,40.6,33.3,30.49,South,181,3.0,3.0,75,0.00,,---,0.00,VWS V14.01,2013-11-21 15:35:00,
2013-11-21 10:37:00,40.8,33.5,30.49,South,181,3.0,6.0,75,0.00,,---,0.00,VWS V14.01,2013-11-21 15:37:00,
2013-11-21 10:38:00,40.9,33.3,30.49,South,181,1.0,3.0,74,0.00,,---,0.00,VWS V14.01,2013-11-21 15:38:00,
2013-11-21 10:39:00,41.1,33.1,30.49,SSE,165,1.0,4.0,73,0.00,,---,0.00,VWS V14.01,2013-11-21 15:39:00,
2013-11-21 10:40:00,41.2,33.9,30.49,South,187,7.0,7.0,75,0.00,,---,0.00,VWS V14.01,2013-11-21 15:40:00,
2013-11-21 10:42:00,41.3,33.7,30.49,SSE,161,4.0,7.0,74,0.00,,---,0.00,VWS V14.01,2013-11-21 15:42:00,
2013-11-21 10:43:00,41.3,33.3,30.49,SSE,149,0.0,4.0,73,0.00,,---,0.00,VWS V14.01,2013-11-21 15:43:00,
2013-11-21 10:44:00,41.1,33.1,30.49,SE,139,6.0,6.0,73,0.00,,---,0.00,VWS V14.01,2013-11-21 15:44:00,
2013-11-21 10:45:00,40.9,32.9,30.49,SE,125,4.0,7.0,73,0.00,,---,0.00,VWS V14.01,2013-11-21 15:45:00,
2013-11-21 10:47:00,40.8,33.2,30.49,South,169,0.0,5.0,74,0.00,,---,0.00,VWS V14.01,2013-11-21 15:47:00,
2013-11-21 10:48:00,40.8,33.5,30.49,South,172,2.0,3.0,75,0.00,,---,0.00,VWS V14.01,2013-11-21 15:48:00,
2013-11-21 10:49:00,40.8,33.2,30.49,South,173,2.0,2.0,74,0.00,,---,0.00,VWS V14.01,2013-11-21 15:49:00,
2013-11-21 10:50:00,40.8,33.2,30.49,South,173,0.0,2.0,74,0.00,,---,0.00,VWS V14.01,2013-11-21 15:50:00,
2013-11-21 10:51:00,40.6,33.0,30.49,South,182,0.0,3.0,74,0.00,,---,0.00,VWS V14.01,2013-11-21 15:51:00,
2013-11-21 10:52:00,40.8,33.5,30.49,South,176,4.0,4.0,75,0.00,,---,0.00,VWS V14.01,2013-11-21 15:52:00,
2013-11-21 10:53:00,40.8,33.2,30.49,South,170,2.0,6.0,74,0.00,,---,0.00,VWS V14.01,2013-11-21 15:53:00,
2013-11-21 10:54:00,40.8,33.2,30.49,South,182,2.0,4.0,74,0.00,,---,0.00,VWS V14.01,2013-11-21 15:54:00,
2013-11-21 10:55:00,40.8,33.2,30.49,SE,138,4.0,6.0,74,0.00,,---,0.00,VWS V14.01,2013-11-21 15:55:00,
2013-11-21 10:56:00,40.8,33.2,30.49,SE,137,0.0,2.0,74,0.00,,---,0.00,VWS V14.01,2013-11-21 15:56:00,
2013-11-21 10:57:00,40.8,33.2,30.49,SSE,163,4.0,5.0,74,0.00,,---,0.00,VWS V14.01,2013-11-21 15:57:00,
2013-11-21 10:58:00,40.6,33.0,30.49,SSE,167,4.0,5.0,74,0.00,,---,0.00,VWS V14.01,2013-11-21 15:58:00,
2013-11-21 10:59:00,40.6,33.0,30.49,South,169,0.0,0.0,74,0.00,,---,0.00,VWS V14.01,2013-11-21 15:59:00,
2013-11-21 11:00:00,40.6,33.0,30.49,South,169,0.0,0.0,74,0.00,,---,0.00,VWS V14.01,2013-11-21 16:00:00,
2013-11-21 11:01:00,40.6,33.0,30.49,SSE,163,4.0,4.0,74,0.00,,---,0.00,VWS V14.01,2013-11-21 16:01:00,
2013-11-21 11:02:00,40.5,33.2,30.48,SE,137,0.0,0.0,75,0.00,,---,0.00,VWS V14.01,2013-11-21 16:02:00,
2013-11-21 11:03:00,40.5,33.2,30.48,SE,137,0.0,0.0,75,0.00,,---,0.00,VWS V14.01,2013-11-21 16:03:00,
2013-11-21 11:04:00,40.5,33.2,30.48,SSE,149,0.0,0.0,75,0.00,,---,0.00,VWS V14.01,2013-11-21 16:04:00,
2013-11-21 11:05:00,40.5,33.2,30.48,SSW,198,2.0,5.0,75,0.00,,---,0.00,VWS V14.01,2013-11-21 16:05:00,
2013-11-21 11:06:00,40.5,33.2,30.48,South,178,2.0,5.0,75,0.00,,---,0.00,VWS V14.01,2013-11-21 16:06:00,
2013-11-21 11:07:00,40.5,33.2,30.48,South,179,3.0,6.0,75,0.00,,---,0.00,VWS V14.01,2013-11-21 16:07:00,
2013-11-21 11:08:00,40.5,33.2,30.48,South,179,2.0,6.0,75,0.00,,---,0.00,VWS V14.01,2013-11-21 16:08:00,
2013-11-21 11:09:00,40.6,33.3,30.48,South,170,4.0,5.0,75,0.00,,---,0.00,VWS V14.01,2013-11-21 16:09:00,
2013-11-21 11:10:00,40.6,33.3,30.48,SSE,155,5.0,8.0,75,0.00,,---,0.00,VWS V14.01,2013-11-21 16:10:00,
2013-11-21 11:11:00,40.6,33.0,30.48,SSE,159,0.0,6.0,74,0.00,,---,0.00,VWS V14.01,2013-11-21 16:11:00,
2013-11-21 11:12:00,40.6,33.3,30.48,SSE,167,0.0,0.0,75,0.00,,---,0.00,VWS V14.01,2013-11-21 16:12:00,
2013-11-21 11:13:00,40.8,33.5,30.48,South,177,2.0,2.0,75,0.00,,---,0.00,VWS V14.01,2013-11-21 16:13:00,
2013-11-21 11:14:00,40.8,33.5,30.48,South,177,0.0,4.0,75,0.00,,---,0.00,VWS V14.01,2013-11-21 16:14:00,
2013-11-21 11:15:00,40.8,33.5,30.48,South,177,1.0,4.0,75,0.00,,---,0.00,VWS V14.01,2013-11-21 16:15:00,
2013-11-21 11:16:00,40.8,33.5,30.48,South,177,0.0,0.0,75,0.00,,---,0.00,VWS V14.01,2013-11-21 16:16:00,
2013-11-21 11:17:00,40.9,33.6,30.48,South,171,0.0,4.0,75,0.00,,---,0.00,VWS V14.01,2013-11-21 16:17:00,
2013-11-21 11:18:00,40.9,33.6,30.48,South,171,0.0,4.0,75,0.00,,---,0.00,VWS V14.01,2013-11-21 16:18:00,
2013-11-21 11:19:00,40.9,33.3,30.48,SE,124,5.0,5.0,74,0.00,,---,0.00,VWS V14.01,2013-11-21 16:19:00,
2013-11-21 11:20:00,40.9,33.3,30.48,SSW,198,3.0,4.0,74,0.00,,---,0.00,VWS V14.01,2013-11-21 16:20:00,
2013-11-21 11:21:00,40.9,33.6,30.48,SSW,197,3.0,4.0,75,0.00,,---,0.00,VWS V14.01,2013-11-21 16:21:00,
2013-11-21 11:23:00,41.1,33.5,30.48,SE,144,1.0,5.0,74,0.00,,---,0.00,VWS V14.01,2013-11-21 16:23:00,
2013-11-21 11:24:00,41.1,33.5,30.48,SE,141,0.0,0.0,74,0.00,,---,0.00,VWS V14.01,2013-11-21 16:24:00,
2013-11-21 11:25:00,41.1,33.5,30.48,SE,141,0.0,1.0,74,0.00,,---,0.00,VWS V14.01,2013-11-21 16:25:00,
2013-11-21 11:26:00,41.1,33.5,30.48,South,172,4.0,4.0,74,0.00,,---,0.00,VWS V14.01,2013-11-21 16:26:00,
2013-11-21 11:28:00,41.2,33.5,30.48,South,170,2.0,4.0,74,0.00,,---,0.00,VWS V14.01,2013-11-21 16:28:00,
2013-11-21 11:29:00,41.2,33.2,30.48,SSE,165,4.0,5.0,73,0.00,,---,0.00,VWS V14.01,2013-11-21 16:29:00,
2013-11-21 11:30:00,41.1,33.1,30.48,SSE,165,2.0,2.0,73,0.00,,---,0.00,VWS V14.01,2013-11-21 16:30:00,
2013-11-21 11:31:00,41.1,33.1,30.48,SSE,163,5.0,5.0,73,0.00,,---,0.00,VWS V14.01,2013-11-21 16:31:00,
2013-11-21 11:33:00,41.2,33.5,30.47,SE,139,0.0,4.0,74,0.00,,---,0.00,VWS V14.01,2013-11-21 16:33:00,
2013-11-21 11:35:00,41.2,33.5,30.47,SE,140,7.0,7.0,74,0.00,,---,0.00,VWS V14.01,2013-11-21 16:35:00,
2013-11-21 11:36:00,41.2,33.2,30.47,SE,128,1.0,5.0,73,0.00,,---,0.00,VWS V14.01,2013-11-21 16:36:00,
2013-11-21 11:38:00,41.5,33.8,30.47,SE,128,0.0,0.0,74,0.00,,---,0.00,VWS V14.01,2013-11-21 16:38:00,
2013-11-21 11:40:00,41.6,33.9,30.47,SSE,166,5.0,5.0,74,0.00,,---,0.00,VWS V14.01,2013-11-21 16:40:00,
2013-11-21 11:41:00,41.6,33.6,30.47,SSE,167,0.0,4.0,73,0.00,,---,0.00,VWS V14.01,2013-11-21 16:41:00,
2013-11-21 11:43:00,41.8,33.8,30.47,SSE,163,0.0,1.0,73,0.00,,---,0.00,VWS V14.01,2013-11-21 16:43:00,
2013-11-21 11:44:00,41.9,33.9,30.47,SE,143,0.0,7.0,73,0.00,,---,0.00,VWS V14.01,2013-11-21 16:44:00,
2013-11-21 11:45:00,42.1,33.7,30.47,SE,145,1.0,7.0,72,0.00,,---,0.00,VWS V14.01,2013-11-21 16:45:00,
2013-11-21 11:46:00,42.1,33.7,30.47,SSE,159,2.0,5.0,72,0.00,,---,0.00,VWS V14.01,2013-11-21 16:46:00,
2013-11-21 11:48:00,42.1,34.1,30.46,SSW,194,3.0,4.0,73,0.00,,---,0.00,VWS V14.01,2013-11-21 16:48:00,
2013-11-21 11:49:00,42.3,34.3,30.46,SSE,159,9.0,9.0,73,0.00,,---,0.00,VWS V14.01,2013-11-21 16:49:00,
2013-11-21 11:50:00,42.3,33.6,30.46,South,169,6.0,9.0,71,0.00,,---,0.00,VWS V14.01,2013-11-21 16:50:00,
2013-11-21 11:51:00,42.3,33.6,30.46,South,179,3.0,6.0,71,0.00,,---,0.00,VWS V14.01,2013-11-21 16:51:00,
2013-11-21 11:53:00,42.8,34.4,30.46,SSW,196,0.0,2.0,72,0.00,,---,0.00,VWS V14.01,2013-11-21 16:53:00,
2013-11-21 11:54:00,43.1,34.7,30.46,SSW,196,0.0,3.0,72,0.00,,---,0.00,VWS V14.01,2013-11-21 16:54:00,
2013-11-21 11:55:00,43.2,34.1,30.46,SSE,154,7.0,7.0,70,0.00,,---,0.00,VWS V14.01,2013-11-21 16:55:00,
2013-11-21 11:56:00,43.2,34.1,30.46,SSE,150,3.0,7.0,70,0.00,,---,0.00,VWS V14.01,2013-11-21 16:56:00,
2013-11-21 11:58:00,43.1,34.3,30.46,SE,126,4.0,4.0,71,0.00,,---,0.00,VWS V14.01,2013-11-21 16:58:00,
2013-11-21 11:59:00,43.1,34.3,30.46,SE,143,0.0,0.0,71,0.00,,---,0.00,VWS V14.01,2013-11-21 16:59:00,
2013-11-21 12:00:00,43.2,34.5,30.46,SSE,157,0.0,5.0,71,0.00,,---,0.00,VWS V14.01,2013-11-21 17:00:00,
2013-11-21 12:01:00,43.2,34.5,30.46,SSE,167,2.0,4.0,71,0.00,,---,0.00,VWS V14.01,2013-11-21 17:01:00,
2013-11-21 12:02:00,43.2,34.1,30.46,SSE,167,1.0,1.0,70,0.00,,---,0.00,VWS V14.01,2013-11-21 17:02:00,
2013-11-21 12:03:00,43.6,35.2,30.45,SSE,167,2.0,6.0,72,0.00,,---,0.00,VWS V14.01,2013-11-21 17:03:00,
2013-11-21 12:04:00,43.5,34.4,30.45,South,173,4.0,5.0,70,0.00,,---,0.00,VWS V14.01,2013-11-21 17:04:00,
2013-11-21 12:05:00,43.5,34.4,30.45,SSE,167,4.0,6.0,70,0.00,,---,0.00,VWS V14.01,2013-11-21 17:05:00,
2013-11-21 12:06:00,43.3,34.2,30.45,South,169,5.0,6.0,70,0.00,,---,0.00,VWS V14.01,2013-11-21 17:06:00,
2013-11-21 12:07:00,43.3,34.2,30.45,SSE,168,2.0,4.0,70,0.00,,---,0.00,VWS V14.01,2013-11-21 17:07:00,
2013-11-21 12:09:00,43.5,34.7,30.45,SSW,204,0.0,6.0,71,0.00,,---,0.00,VWS V14.01,2013-11-21 17:09:00,
2013-11-21 12:10:00,43.6,34.5,30.45,SSW,200,0.0,2.0,70,0.00,,---,0.00,VWS V14.01,2013-11-21 17:10:00,
2013-11-21 12:11:00,43.6,34.5,30.45,SSW,200,0.0,0.0,70,0.00,,---,0.00,VWS V14.01,2013-11-21 17:11:00,
2013-11-21 12:12:00,43.5,34.4,30.45,SSW,195,6.0,7.0,70,0.00,,---,0.00,VWS V14.01,2013-11-21 17:12:00,
2013-11-21 12:14:00,43.6,34.1,30.45,South,171,5.0,8.0,69,0.00,,---,0.00,VWS V14.01,2013-11-21 17:14:00,
2013-11-21 12:15:00,43.6,34.1,30.45,South,171,7.0,8.0,69,0.00,,---,0.00,VWS V14.01,2013-11-21 17:15:00,
2013-11-21 12:16:00,43.5,34.0,30.45,South,169,8.0,8.0,69,0.00,,---,0.00,VWS V14.01,2013-11-21 17:16:00,
2013-11-21 12:17:00,43.3,33.8,30.45,South,184,6.0,6.0,69,0.00,,---,0.00,VWS V14.01,2013-11-21 17:17:00,
2013-11-21 12:19:00,43.6,34.1,30.45,South,182,0.0,2.0,69,0.00,,---,0.00,VWS V14.01,2013-11-21 17:19:00,
2013-11-21 12:20:00,43.6,34.1,30.45,South,182,0.0,2.0,69,0.00,,---,0.00,VWS V14.01,2013-11-21 17:20:00,
2013-11-21 12:21:00,43.5,34.0,30.45,SE,132,4.0,4.0,69,0.00,,---,0.00,VWS V14.01,2013-11-21 17:21:00,
2013-11-21 12:22:00,43.5,34.4,30.45,SE,140,0.0,4.0,70,0.00,,---,0.00,VWS V14.01,2013-11-21 17:22:00,
2013-11-21 12:24:00,43.5,34.4,30.45,SSE,153,3.0,3.0,70,0.00,,---,0.00,VWS V14.01,2013-11-21 17:24:00,
2013-11-21 12:25:00,43.5,34.4,30.45,SSE,153,3.0,4.0,70,0.00,,---,0.00,VWS V14.01,2013-11-21 17:25:00,
2013-11-21 12:26:00,43.5,34.7,30.45,SSE,153,0.0,2.0,71,0.00,,---,0.00,VWS V14.01,2013-11-21 17:26:00,
2013-11-21 12:27:00,43.5,34.0,30.45,SE,146,2.0,5.0,69,0.00,,---,0.00,VWS V14.01,2013-11-21 17:27:00,
2013-11-21 12:29:00,43.5,34.4,30.45,SE,138,2.0,5.0,70,0.00,,---,0.00,VWS V14.01,2013-11-21 17:29:00,
2013-11-21 12:30:00,43.5,34.4,30.45,South,184,6.0,6.0,70,0.00,,---,0.00,VWS V14.01,2013-11-21 17:30:00,
2013-11-21 12:31:00,43.3,33.8,30.45,South,177,2.0,4.0,69,0.00,,---,0.00,VWS V14.01,2013-11-21 17:31:00,
2013-11-21 12:32:00,43.5,34.4,30.45,South,177,0.0,3.0,70,0.00,,---,0.00,VWS V14.01,2013-11-21 17:32:00,
2013-11-21 12:34:00,43.6,34.1,30.44,SE,138,2.0,5.0,69,0.00,,---,0.00,VWS V14.01,2013-11-21 17:34:00,
2013-11-21 12:35:00,43.6,34.1,30.44,SE,125,4.0,5.0,69,0.00,,---,0.00,VWS V14.01,2013-11-21 17:35:00,
2013-11-21 12:36:00,43.5,34.0,30.44,SE,136,3.0,4.0,69,0.00,,---,0.00,VWS V14.01,2013-11-21 17:36:00,
2013-11-21 12:37:00,43.3,33.8,30.44,SE,136,0.0,3.0,69,0.00,,---,0.00,VWS V14.01,2013-11-21 17:37:00,
2013-11-21 12:39:00,43.2,34.5,30.44,SE,137,0.0,0.0,71,0.00,,---,0.00,VWS V14.01,2013-11-21 17:39:00,
2013-11-21 12:40:00,43.2,34.5,30.44,South,185,0.0,3.0,71,0.00,,---,0.00,VWS V14.01,2013-11-21 17:40:00,
2013-11-21 12:41:00,43.3,34.2,30.44,South,181,3.0,3.0,70,0.00,,---,0.00,VWS V14.01,2013-11-21 17:41:00,
2013-11-21 12:42:00,43.5,34.4,30.44,SSE,167,2.0,5.0,70,0.00,,---,0.00,VWS V14.01,2013-11-21 17:42:00,
2013-11-21 12:45:00,43.3,33.8,30.44,South,169,1.0,4.0,69,0.00,,---,0.00,VWS V14.01,2013-11-21 17:45:00,
2013-11-21 12:46:00,43.3,33.8,30.44,SE,132,4.0,5.0,69,0.00,,---,0.00,VWS V14.01,2013-11-21 17:46:00,
2013-11-21 12:47:00,43.3,33.8,30.44,South,170,2.0,5.0,69,0.00,,---,0.00,VWS V14.01,2013-11-21 17:47:00,
2013-11-21 12:50:00,43.5,34.4,30.44,South,174,1.0,4.0,70,0.00,,---,0.00,VWS V14.01,2013-11-21 17:50:00,
2013-11-21 12:51:00,43.8,34.3,30.44,SE,139,4.0,5.0,69,0.00,,---,0.00,VWS V14.01,2013-11-21 17:51:00,
2013-11-21 12:52:00,43.8,34.3,30.44,SE,139,0.0,5.0,69,0.00,,---,0.00,VWS V14.01,2013-11-21 17:52:00,
2013-11-21 12:55:00,43.9,34.4,30.44,SSE,153,5.0,6.0,69,0.00,,---,0.00,VWS V14.01,2013-11-21 17:55:00,
2013-11-21 12:56:00,43.9,34.4,30.44,SSE,150,0.0,3.0,69,0.00,,---,0.00,VWS V14.01,2013-11-21 17:56:00,
2013-11-21 12:57:00,43.9,34.4,30.44,SSE,154,0.0,6.0,69,0.00,,---,0.00,VWS V14.01,2013-11-21 17:57:00,
2013-11-21 13:00:00,44.1,34.6,30.44,South,175,6.0,6.0,69,0.00,,---,0.00,VWS V14.01,2013-11-21 18:00:00,
2013-11-21 13:01:00,44.1,34.2,30.44,SSE,148,0.0,4.0,68,0.00,,---,0.00,VWS V14.01,2013-11-21 18:01:00,
2013-11-21 13:02:00,44.1,34.2,30.44,SSE,165,3.0,3.0,68,0.00,,---,0.00,VWS V14.01,2013-11-21 18:02:00,
2013-11-21 13:05:00,43.9,34.0,30.44,SSW,198,2.0,7.0,68,0.00,,---,0.00,VWS V14.01,2013-11-21 18:05:00,
2013-11-21 13:06:00,44.1,34.2,30.44,SSW,197,0.0,4.0,68,0.00,,---,0.00,VWS V14.01,2013-11-21 18:06:00,
2013-11-21 13:07:00,44.3,34.8,30.44,South,186,4.0,7.0,69,0.00,,---,0.00,VWS V14.01,2013-11-21 18:07:00,
2013-11-21 13:08:00,44.3,34.0,30.44,SSE,165,5.0,5.0,67,0.00,,---,0.00,VWS V14.01,2013-11-21 18:08:00,
2013-11-21 13:10:00,44.3,34.0,30.44,SSE,158,4.0,4.0,67,0.00,,---,0.00,VWS V14.01,2013-11-21 18:10:00,
2013-11-21 13:11:00,44.3,34.4,30.44,SE,132,2.0,6.0,68,0.00,,---,0.00,VWS V14.01,2013-11-21 18:11:00,
2013-11-21 13:12:00,44.3,34.4,30.44,SE,133,1.0,2.0,68,0.00,,---,0.00,VWS V14.01,2013-11-21 18:12:00,
2013-11-21 13:13:00,44.5,34.6,30.44,ESE,121,0.0,5.0,68,0.00,,---,0.00,VWS V14.01,2013-11-21 18:13:00,
2013-11-21 13:15:00,44.6,34.7,30.44,ESE,121,0.0,1.0,68,0.00,,---,0.00,VWS V14.01,2013-11-21 18:15:00,
2013-11-21 13:16:00,44.9,35.4,30.44,ESE,122,0.0,3.0,69,0.00,,---,0.00,VWS V14.01,2013-11-21 18:16:00,
2013-11-21 13:17:00,44.9,35.0,30.44,SE,140,3.0,6.0,68,0.00,,---,0.00,VWS V14.01,2013-11-21 18:17:00,
2013-11-21 13:18:00,44.8,34.5,30.42,SSE,168,2.0,4.0,67,0.00,,---,0.00,VWS V14.01,2013-11-21 18:18:00,
2013-11-21 13:20:00,44.9,35.0,30.42,SSE,166,0.0,2.0,68,0.00,,---,0.00,VWS V14.01,2013-11-21 18:20:00,
2013-11-21 13:21:00,45.1,34.8,30.42,SSE,166,1.0,1.0,67,0.00,,---,0.00,VWS V14.01,2013-11-21 18:21:00,
2013-11-21 13:22:00,45.1,34.8,30.42,SSE,166,1.0,4.0,67,0.00,,---,0.00,VWS V14.01,2013-11-21 18:22:00,
2013-11-21 13:23:00,45.1,34.8,30.42,SSE,166,3.0,4.0,67,0.00,,---,0.00,VWS V14.01,2013-11-21 18:23:00,
2013-11-21 13:25:00,45.2,34.9,30.42,SSE,150,2.0,3.0,67,0.00,,---,0.00,VWS V14.01,2013-11-21 18:25:00,
2013-11-21 13:26:00,45.5,35.2,30.42,SSE,155,4.0,5.0,67,0.00,,---,0.00,VWS V14.01,2013-11-21 18:26:00,
2013-11-21 13:27:00,45.7,35.4,30.42,SSE,150,3.0,5.0,67,0.00,,---,0.00,VWS V14.01,2013-11-21 18:27:00,
2013-11-21 13:28:00,45.7,35.4,30.42,SSE,165,5.0,6.0,67,0.00,,---,0.00,VWS V14.01,2013-11-21 18:28:00,
2013-11-21 13:30:00,45.8,35.1,30.42,SSE,162,3.0,10.0,66,0.00,,---,0.00,VWS V14.01,2013-11-21 18:30:00,
2013-11-21 13:31:00,46.0,35.7,30.42,SSE,161,7.0,7.0,67,0.00,,---,0.00,VWS V14.01,2013-11-21 18:31:00,
2013-11-21 13:32:00,46.0,34.9,30.42,SSE,161,5.0,7.0,65,0.00,,---,0.00,VWS V14.01,2013-11-21 18:32:00,
2013-11-21 13:33:00,45.8,34.7,30.41,SSE,163,2.0,6.0,65,0.00,,---,0.00,VWS V14.01,2013-11-21 18:33:00,
2013-11-21 13:35:00,46.0,35.3,30.41,SSE,164,4.0,4.0,66,0.00,,---,0.00,VWS V14.01,2013-11-21 18:35:00,
2013-11-21 13:37:00,46.0,35.3,30.41,South,180,9.0,9.0,66,0.00,,---,0.00,VWS V14.01,2013-11-21 18:37:00,
2013-11-21 13:38:00,46.0,35.3,30.41,SE,137,1.0,5.0,66,0.00,,---,0.00,VWS V14.01,2013-11-21 18:38:00,
2013-11-21 13:40:00,45.7,34.6,30.41,SE,137,7.0,7.0,65,0.00,,---,0.00,VWS V14.01,2013-11-21 18:40:00,
2013-11-21 13:42:00,45.7,35.4,30.41,ESE,110,3.0,4.0,67,0.00,,---,0.00,VWS V14.01,2013-11-21 18:42:00,
2013-11-21 13:43:00,45.5,35.2,30.41,SSE,155,5.0,11.0,67,0.00,,---,0.00,VWS V14.01,2013-11-21 18:43:00,
2013-11-21 13:44:00,45.5,34.8,30.41,SSE,161,6.0,7.0,66,0.00,,---,0.00,VWS V14.01,2013-11-21 18:44:00,
2013-11-21 13:45:00,45.5,34.8,30.41,SSE,161,2.0,3.0,66,0.00,,---,0.00,VWS V14.01,2013-11-21 18:45:00,
2013-11-21 13:47:00,45.5,35.2,30.41,SE,134,3.0,6.0,67,0.00,,---,0.00,VWS V14.01,2013-11-21 18:47:00,
2013-11-21 13:48:00,45.7,35.4,30.41,SE,142,1.0,5.0,67,0.00,,---,0.00,VWS V14.01,2013-11-21 18:48:00,
2013-11-21 13:49:00,45.7,35.4,30.41,SE,144,2.0,3.0,67,0.00,,---,0.00,VWS V14.01,2013-11-21 18:49:00,
2013-11-21 13:50:00,46.0,35.7,30.41,South,189,3.0,3.0,67,0.00,,---,0.00,VWS V14.01,2013-11-21 18:50:00,
2013-11-21 13:52:00,46.2,35.5,30.41,SSE,161,0.0,6.0,66,0.00,,---,0.00,VWS V14.01,2013-11-21 18:52:00,
2013-11-21 13:53:00,46.2,35.5,30.41,SSE,161,1.0,4.0,66,0.00,,---,0.00,VWS V14.01,2013-11-21 18:53:00,
2013-11-21 13:54:00,46.4,35.7,30.41,SSE,161,3.0,3.0,66,0.00,,---,0.00,VWS V14.01,2013-11-21 18:54:00,
2013-11-21 13:55:00,46.5,35.8,30.41,SE,145,5.0,5.0,66,0.00,,---,0.00,VWS V14.01,2013-11-21 18:55:00,
2013-11-21 13:57:00,46.5,35.4,30.41,SSE,153,1.0,6.0,65,0.00,,---,0.00,VWS V14.01,2013-11-21 18:57:00,
2013-11-21 13:58:00,46.5,35.4,30.41,SE,126,7.0,7.0,65,0.00,,---,0.00,VWS V14.01,2013-11-21 18:58:00,
2013-11-21 13:59:00,46.5,35.4,30.41,ESE,122,9.0,9.0,65,0.00,,---,0.00,VWS V14.01,2013-11-21 18:59:00,
2013-11-21 14:00:00,46.2,35.1,30.41,SE,144,4.0,6.0,65,0.00,,---,0.00,VWS V14.01,2013-11-21 19:00:00,
2013-11-21 14:02:00,46.4,35.7,30.39,ESE,123,0.0,0.0,66,0.00,,---,0.00,VWS V14.01,2013-11-21 19:02:00,
2013-11-21 14:03:00,46.4,35.7,30.39,SE,126,2.0,3.0,66,0.00,,---,0.00,VWS V14.01,2013-11-21 19:03:00,
2013-11-21 14:04:00,46.5,35.8,30.39,SSE,147,2.0,7.0,66,0.00,,---,0.00,VWS V14.01,2013-11-21 19:04:00,
2013-11-21 14:05:00,46.5,35.4,30.39,South,178,4.0,6.0,65,0.00,,---,0.00,VWS V14.01,2013-11-21 19:05:00,
2013-11-21 14:08:00,46.7,36.0,30.39,ESE,121,3.0,5.0,66,0.00,,---,0.00,VWS V14.01,2013-11-21 19:08:00,
2013-11-21 14:09:00,46.8,35.7,30.39,SSE,163,2.0,5.0,65,0.00,,---,0.00,VWS V14.01,2013-11-21 19:09:00,
2013-11-21 14:10:00,46.7,35.6,30.39,South,169,5.0,6.0,65,0.00,,---,0.00,VWS V14.01,2013-11-21 19:10:00,
2013-11-21 14:13:00,46.8,35.7,30.39,South,176,6.0,9.0,65,0.00,,---,0.00,VWS V14.01,2013-11-21 19:13:00,
2013-11-21 14:14:00,46.8,35.7,30.39,SE,140,4.0,5.0,65,0.00,,---,0.00,VWS V14.01,2013-11-21 19:14:00,
2013-11-21 14:15:00,47.0,36.2,30.39,SE,140,1.0,2.0,66,0.00,,---,0.00,VWS V14.01,2013-11-21 19:15:00,
2013-11-21 14:18:00,47.1,36.0,30.40,ESE,113,0.0,4.0,65,0.00,,---,0.00,VWS V14.01,2013-11-21 19:18:00,
2013-11-21 14:19:00,47.1,36.0,30.40,ESE,119,4.0,4.0,65,0.00,,---,0.00,VWS V14.01,2013-11-21 19:19:00,
2013-11-21 14:21:00,47.1,36.0,30.40,East,97,2.0,3.0,65,0.00,,---,0.00,VWS V14.01,2013-11-21 19:21:00,
2013-11-21 14:23:00,47.1,35.6,30.40,ESE,106,0.0,2.0,64,0.00,,---,0.00,VWS V14.01,2013-11-21 19:23:00,
2013-11-21 14:24:00,47.3,35.8,30.40,ESE,108,1.0,3.0,64,0.00,,---,0.00,VWS V14.01,2013-11-21 19:24:00,
2013-11-21 14:26:00,47.6,36.0,30.40,ESE,123,6.0,12.0,64,0.00,,---,0.00,VWS V14.01,2013-11-21 19:26:00,
2013-11-21 14:28:00,47.4,35.5,30.40,SE,131,11.0,11.0,63,0.00,,---,0.00,VWS V14.01,2013-11-21 19:28:00,
2013-11-21 14:29:00,47.3,35.4,30.40,ESE,113,5.0,6.0,63,0.00,,---,0.00,VWS V14.01,2013-11-21 19:29:00,
2013-11-21 14:31:00,47.1,35.6,30.40,ESE,103,8.0,8.0,64,0.00,,---,0.00,VWS V14.01,2013-11-21 19:31:00,
2013-11-21 14:33:00,47.1,35.6,30.39,SE,146,2.0,6.0,64,0.00,,---,0.00,VWS V14.01,2013-11-21 19:33:00,
2013-11-21 14:34:00,47.1,36.0,30.39,SSE,162,3.0,5.0,65,0.00,,---,0.00,VWS V14.01,2013-11-21 19:34:00,
2013-11-21 14:36:00,47.3,36.2,30.39,South,171,5.0,5.0,65,0.00,,---,0.00,VWS V14.01,2013-11-21 19:36:00,
2013-11-21 14:38:00,47.1,35.6,30.39,SSE,148,3.0,10.0,64,0.00,,---,0.00,VWS V14.01,2013-11-21 19:38:00,
2013-11-21 14:39:00,47.1,35.6,30.39,SSE,166,6.0,6.0,64,0.00,,---,0.00,VWS V14.01,2013-11-21 19:39:00,
2013-11-21 14:40:00,47.1,35.6,30.39,SE,136,2.0,5.0,64,0.00,,---,0.00,VWS V14.01,2013-11-21 19:40:00,
2013-11-21 14:41:00,47.0,35.9,30.39,SSE,164,8.0,10.0,65,0.00,,---,0.00,VWS V14.01,2013-11-21 19:41:00,
2013-11-21 14:43:00,46.5,35.4,30.39,ESE,108,3.0,7.0,65,0.00,,---,0.00,VWS V14.01,2013-11-21 19:43:00,
2013-11-21 14:44:00,46.5,35.4,30.39,ESE,108,0.0,3.0,65,0.00,,---,0.00,VWS V14.01,2013-11-21 19:44:00,
2013-11-21 14:45:00,46.4,35.3,30.39,SE,143,4.0,4.0,65,0.00,,---,0.00,VWS V14.01,2013-11-21 19:45:00,
2013-11-21 14:46:00,46.2,35.5,30.39,SSE,167,4.0,6.0,66,0.00,,---,0.00,VWS V14.01,2013-11-21 19:46:00,
2013-11-21 14:48:00,46.1,35.4,30.38,SE,127,2.0,5.0,66,0.00,,---,0.00,VWS V14.01,2013-11-21 19:48:00,
2013-11-21 14:49:00,46.1,35.4,30.38,SE,126,5.0,7.0,66,0.00,,---,0.00,VWS V14.01,2013-11-21 19:49:00,
2013-11-21 14:50:00,46.1,35.4,30.38,South,172,1.0,4.0,66,0.00,,---,0.00,VWS V14.01,2013-11-21 19:50:00,
2013-11-21 14:51:00,46.1,35.8,30.38,South,172,1.0,4.0,67,0.00,,---,0.00,VWS V14.01,2013-11-21 19:51:00,
2013-11-21 14:53:00,46.0,35.3,30.38,SSE,153,2.0,3.0,66,0.00,,---,0.00,VWS V14.01,2013-11-21 19:53:00,
2013-11-21 14:54:00,46.0,35.3,30.38,SSE,168,5.0,5.0,66,0.00,,---,0.00,VWS V14.01,2013-11-21 19:54:00,
2013-11-21 14:55:00,46.1,35.4,30.38,SSE,166,0.0,4.0,66,0.00,,---,0.00,VWS V14.01,2013-11-21 19:55:00,
2013-11-21 14:56:00,46.1,35.4,30.38,ESE,111,3.0,6.0,66,0.00,,---,0.00,VWS V14.01,2013-11-21 19:56:00,
2013-11-21 14:58:00,46.1,35.4,30.38,SSE,168,2.0,3.0,66,0.00,,---,0.00,VWS V14.01,2013-11-21 19:58:00,
2013-11-21 14:59:00,46.1,35.4,30.38,SE,145,5.0,5.0,66,0.00,,---,0.00,VWS V14.01,2013-11-21 19:59:00,
2013-11-21 15:00:00,46.1,35.4,30.38,SE,146,3.0,7.0,66,0.00,,---,0.00,VWS V14.01,2013-11-21 20:00:00,
2013-11-21 15:01:00,46.1,35.4,30.38,SE,146,1.0,7.0,66,0.00,,---,0.00,VWS V14.01,2013-11-21 20:01:00,
2013-11-21 15:03:00,46.1,35.8,30.38,SE,146,1.0,2.0,67,0.00,,---,0.00,VWS V14.01,2013-11-21 20:03:00,
2013-11-21 15:04:00,46.1,35.8,30.38,SE,146,0.0,2.0,67,0.00,,---,0.00,VWS V14.01,2013-11-21 20:04:00,
2013-11-21 15:05:00,46.2,35.5,30.38,SSE,157,2.0,5.0,66,0.00,,---,0.00,VWS V14.01,2013-11-21 20:05:00,
2013-11-21 15:06:00,46.2,35.5,30.38,SSE,162,1.0,2.0,66,0.00,,---,0.00,VWS V14.01,2013-11-21 20:06:00,
2013-11-21 15:08:00,46.2,35.9,30.38,SSE,164,2.0,4.0,67,0.00,,---,0.00,VWS V14.01,2013-11-21 20:08:00,
2013-11-21 15:09:00,46.2,35.9,30.38,SSE,164,0.0,4.0,67,0.00,,---,0.00,VWS V14.01,2013-11-21 20:09:00,
2013-11-21 15:10:00,46.4,36.0,30.38,SSE,164,1.0,4.0,67,0.00,,---,0.00,VWS V14.01,2013-11-21 20:10:00,
2013-11-21 15:11:00,46.4,35.7,30.38,SE,146,2.0,4.0,66,0.00,,---,0.00,VWS V14.01,2013-11-21 20:11:00,
2013-11-21 15:13:00,46.4,35.7,30.38,SSE,157,7.0,7.0,66,0.00,,---,0.00,VWS V14.01,2013-11-21 20:13:00,
2013-11-21 15:14:00,46.4,35.7,30.38,SSE,157,2.0,7.0,66,0.00,,---,0.00,VWS V14.01,2013-11-21 20:14:00,
2013-11-21 15:15:00,46.5,35.8,30.38,SSE,157,1.0,3.0,66,0.00,,---,0.00,VWS V14.01,2013-11-21 20:15:00,
2013-11-21 15:16:00,46.5,35.8,30.38,SSE,159,6.0,6.0,66,0.00,,---,0.00,VWS V14.01,2013-11-21 20:16:00,
2013-11-21 15:18:00,46.5,35.8,30.38,SSE,165,0.0,1.0,66,0.00,,---,0.00,VWS V14.01,2013-11-21 20:18:00,
2013-11-21 15:19:00,46.5,35.8,30.38,SSE,165,3.0,3.0,66,0.00,,---,0.00,VWS V14.01,2013-11-21 20:19:00,
2013-11-21 15:20:00,46.5,35.8,30.38,SSE,168,6.0,7.0,66,0.00,,---,0.00,VWS V14.01,2013-11-21 20:20:00,
2013-11-21 15:21:00,46.4,35.7,30.38,South,182,0.0,5.0,66,0.00,,---,0.00,VWS V14.01,2013-11-21 20:21:00,
2013-11-21 15:23:00,46.4,35.7,30.38,SE,136,4.0,9.0,66,0.00,,---,0.00,VWS V14.01,2013-11-21 20:23:00,
2013-11-21 15:24:00,46.4,35.7,30.38,SE,144,5.0,9.0,66,0.00,,---,0.00,VWS V14.01,2013-11-21 20:24:00,
2013-11-21 15:25:00,46.4,35.7,30.38,SE,135,2.0,6.0,66,0.00,,---,0.00,VWS V14.01,2013-11-21 20:25:00,
2013-11-21 15:26:00,46.4,35.7,30.38,SE,137,2.0,4.0,66,0.00,,---,0.00,VWS V14.01,2013-11-21 20:26:00,
2013-11-21 15:28:00,46.4,35.7,30.38,SSE,151,1.0,1.0,66,0.00,,---,0.00,VWS V14.01,2013-11-21 20:28:00,
2013-11-21 15:29:00,46.4,35.7,30.38,SSE,151,0.0,3.0,66,0.00,,---,0.00,VWS V14.01,2013-11-21 20:29:00,
2013-11-21 15:30:00,46.4,35.7,30.38,ESE,115,6.0,7.0,66,0.00,,---,0.00,VWS V14.01,2013-11-21 20:30:00,
2013-11-21 15:31:00,46.2,35.5,30.38,ESE,123,1.0,9.0,66,0.00,,---,0.00,VWS V14.01,2013-11-21 20:31:00,
2013-11-21 15:33:00,46.2,35.9,30.38,SSE,167,2.0,4.0,67,0.00,,---,0.00,VWS V14.01,2013-11-21 20:33:00,
2013-11-21 15:34:00,46.2,35.9,30.38,SSE,166,0.0,6.0,67,0.00,,---,0.00,VWS V14.01,2013-11-21 20:34:00,
2013-11-21 15:35:00,46.2,35.5,30.38,SSE,166,3.0,3.0,66,0.00,,---,0.00,VWS V14.01,2013-11-21 20:35:00,
2013-11-21 15:36:00,46.2,35.5,30.38,SSE,166,3.0,4.0,66,0.00,,---,0.00,VWS V14.01,2013-11-21 20:36:00,
2013-11-21 15:38:00,46.2,35.9,30.38,SSE,166,1.0,1.0,67,0.00,,---,0.00,VWS V14.01,2013-11-21 20:38:00,
2013-11-21 15:39:00,46.2,35.9,30.38,SSE,166,0.0,0.0,67,0.00,,---,0.00,VWS V14.01,2013-11-21 20:39:00,
2013-11-21 15:40:00,46.4,36.0,30.38,SSE,166,3.0,4.0,67,0.00,,---,0.00,VWS V14.01,2013-11-21 20:40:00,
2013-11-21 15:41:00,46.4,36.0,30.38,SSE,167,3.0,5.0,67,0.00,,---,0.00,VWS V14.01,2013-11-21 20:41:00,
2013-11-21 15:44:00,46.4,36.0,30.38,SSE,154,4.0,7.0,67,0.00,,---,0.00,VWS V14.01,2013-11-21 20:44:00,
2013-11-21 15:45:00,46.2,35.9,30.38,SSE,157,0.0,0.0,67,0.00,,---,0.00,VWS V14.01,2013-11-21 20:45:00,
2013-11-21 15:46:00,46.2,35.9,30.38,SSE,157,2.0,2.0,67,0.00,,---,0.00,VWS V14.01,2013-11-21 20:46:00,
2013-11-21 15:49:00,46.2,35.9,30.38,SSE,160,2.0,5.0,67,0.00,,---,0.00,VWS V14.01,2013-11-21 20:49:00,
2013-11-21 15:50:00,46.2,35.9,30.38,SSE,167,3.0,4.0,67,0.00,,---,0.00,VWS V14.01,2013-11-21 20:50:00,
2013-11-21 15:51:00,46.2,35.9,30.38,South,171,5.0,5.0,67,0.00,,---,0.00,VWS V14.01,2013-11-21 20:51:00,
2013-11-21 15:52:00,46.2,35.9,30.38,South,171,2.0,5.0,67,0.00,,---,0.00,VWS V14.01,2013-11-21 20:52:00,
2013-11-21 15:54:00,46.2,35.9,30.38,SSE,153,0.0,4.0,67,0.00,,---,0.00,VWS V14.01,2013-11-21 20:54:00,
2013-11-21 15:55:00,46.2,35.9,30.38,SSE,153,0.0,2.0,67,0.00,,---,0.00,VWS V14.01,2013-11-21 20:55:00,
2013-11-21 15:56:00,46.2,35.9,30.38,SSE,153,0.0,1.0,67,0.00,,---,0.00,VWS V14.01,2013-11-21 20:56:00,
2013-11-21 15:57:00,46.2,35.9,30.38,SSE,153,0.0,1.0,67,0.00,,---,0.00,VWS V14.01,2013-11-21 20:57:00,
2013-11-21 15:59:00,46.1,35.8,30.38,SSE,153,1.0,3.0,67,0.00,,---,0.00,VWS V14.01,2013-11-21 20:59:00,
2013-11-21 16:00:00,46.1,35.8,30.38,SSE,153,0.0,2.0,67,0.00,,---,0.00,VWS V14.01,2013-11-21 21:00:00,
2013-11-21 16:01:00,46.1,35.8,30.38,SSE,153,0.0,2.0,67,0.00,,---,0.00,VWS V14.01,2013-11-21 21:01:00,
2013-11-21 16:02:00,46.2,36.2,30.38,SSE,153,0.0,3.0,68,0.00,,---,0.00,VWS V14.01,2013-11-21 21:02:00,
2013-11-21 16:04:00,46.2,36.2,30.38,South,172,1.0,1.0,68,0.00,,---,0.00,VWS V14.01,2013-11-21 21:04:00,
2013-11-21 16:05:00,46.1,36.1,30.38,South,172,0.0,1.0,68,0.00,,---,0.00,VWS V14.01,2013-11-21 21:05:00,
2013-11-21 16:06:00,46.1,36.1,30.38,South,172,0.0,0.0,68,0.00,,---,0.00,VWS V14.01,2013-11-21 21:06:00,
2013-11-21 16:07:00,46.1,36.1,30.38,South,172,0.0,2.0,68,0.00,,---,0.00,VWS V14.01,2013-11-21 21:07:00,
2013-11-21 16:09:00,46.1,36.1,30.38,South,172,0.0,4.0,68,0.00,,---,0.00,VWS V14.01,2013-11-21 21:09:00,
2013-11-21 16:10:00,46.1,36.1,30.38,South,172,0.0,2.0,68,0.00,,---,0.00,VWS V14.01,2013-11-21 21:10:00,
2013-11-21 16:11:00,46.1,36.1,30.38,South,172,0.0,0.0,68,0.00,,---,0.00,VWS V14.01,2013-11-21 21:11:00,
2013-11-21 16:12:00,46.1,36.1,30.38,South,172,0.0,1.0,68,0.00,,---,0.00,VWS V14.01,2013-11-21 21:12:00,
2013-11-21 16:14:00,46.1,36.1,30.38,South,172,3.0,3.0,68,0.00,,---,0.00,VWS V14.01,2013-11-21 21:14:00,
2013-11-21 16:15:00,46.1,36.1,30.38,South,172,0.0,1.0,68,0.00,,---,0.00,VWS V14.01,2013-11-21 21:15:00,
2013-11-21 16:16:00,46.1,36.1,30.38,South,172,1.0,3.0,68,0.00,,---,0.00,VWS V14.01,2013-11-21 21:16:00,
2013-11-21 16:17:00,46.1,36.1,30.38,South,172,0.0,0.0,68,0.00,,---,0.00,VWS V14.01,2013-11-21 21:17:00,
2013-11-21 16:19:00,46.0,36.0,30.38,South,172,0.0,0.0,68,0.00,,---,0.00,VWS V14.01,2013-11-21 21:19:00,
2013-11-21 16:20:00,46.0,36.0,30.38,South,172,0.0,2.0,68,0.00,,---,0.00,VWS V14.01,2013-11-21 21:20:00,
2013-11-21 16:21:00,46.0,36.0,30.38,South,172,0.0,0.0,68,0.00,,---,0.00,VWS V14.01,2013-11-21 21:21:00,
2013-11-21 16:22:00,46.0,36.0,30.38,South,172,0.0,1.0,68,0.00,,---,0.00,VWS V14.01,2013-11-21 21:22:00,
2013-11-21 16:24:00,45.8,35.8,30.38,South,172,0.0,1.0,68,0.00,,---,0.00,VWS V14.01,2013-11-21 21:24:00,
2013-11-21 16:25:00,45.7,36.1,30.38,South,172,0.0,0.0,69,0.00,,---,0.00,VWS V14.01,2013-11-21 21:25:00,
2013-11-21 16:26:00,45.7,36.1,30.38,South,172,0.0,0.0,69,0.00,,---,0.00,VWS V14.01,2013-11-21 21:26:00,
2013-11-21 16:27:00,45.5,35.9,30.38,South,172,0.0,0.0,69,0.00,,---,0.00,VWS V14.01,2013-11-21 21:27:00,
2013-11-21 16:29:00,45.5,35.9,30.38,South,172,0.0,0.0,69,0.00,,---,0.00,VWS V14.01,2013-11-21 21:29:00,
2013-11-21 16:30:00,45.4,35.8,30.38,South,172,0.0,0.0,69,0.00,,---,0.00,VWS V14.01,2013-11-21 21:30:00,
2013-11-21 16:31:00,45.2,35.7,30.38,South,172,0.0,0.0,69,0.00,,---,0.00,VWS V14.01,2013-11-21 21:31:00,
2013-11-21 16:32:00,45.2,36.0,30.38,South,172,0.0,0.0,70,0.00,,---,0.00,VWS V14.01,2013-11-21 21:32:00,
2013-11-21 16:34:00,45.1,35.9,30.38,South,172,0.0,0.0,70,0.00,,---,0.00,VWS V14.01,2013-11-21 21:34:00,
2013-11-21 16:35:00,44.9,35.7,30.38,South,172,0.0,0.0,70,0.00,,---,0.00,VWS V14.01,2013-11-21 21:35:00,
2013-11-21 16:36:00,44.9,35.7,30.38,South,172,0.0,0.0,70,0.00,,---,0.00,VWS V14.01,2013-11-21 21:36:00,
2013-11-21 16:37:00,44.8,36.0,30.38,South,172,0.0,0.0,71,0.00,,---,0.00,VWS V14.01,2013-11-21 21:37:00,
2013-11-21 16:39:00,44.5,36.0,30.38,South,172,0.0,0.0,72,0.00,,---,0.00,VWS V14.01,2013-11-21 21:39:00,
2013-11-21 16:40:00,44.3,35.9,30.38,South,172,0.0,0.0,72,0.00,,---,0.00,VWS V14.01,2013-11-21 21:40:00,
2013-11-21 16:42:00,44.2,35.8,30.38,South,172,0.0,0.0,72,0.00,,---,0.00,VWS V14.01,2013-11-21 21:42:00,
2013-11-21 16:44:00,44.1,35.7,30.38,South,172,0.0,0.0,72,0.00,,---,0.00,VWS V14.01,2013-11-21 21:44:00,
2013-11-21 16:45:00,43.9,35.8,30.38,South,172,0.0,0.0,73,0.00,,---,0.00,VWS V14.01,2013-11-21 21:45:00,
2013-11-21 16:47:00,43.8,35.7,30.38,South,172,2.0,2.0,73,0.00,,---,0.00,VWS V14.01,2013-11-21 21:47:00,
2013-11-21 16:49:00,43.5,35.8,30.38,South,172,3.0,3.0,74,0.00,,---,0.00,VWS V14.01,2013-11-21 21:49:00,
2013-11-21 16:50:00,43.3,35.6,30.38,South,172,1.0,2.0,74,0.00,,---,0.00,VWS V14.01,2013-11-21 21:50:00,
2013-11-21 16:51:00,43.3,35.6,30.38,South,172,1.0,2.0,74,0.00,,---,0.00,VWS V14.01,2013-11-21 21:51:00,
2013-11-21 16:52:00,43.2,35.5,30.38,South,172,0.0,2.0,74,0.00,,---,0.00,VWS V14.01,2013-11-21 21:52:00,
2013-11-21 16:53:00,43.2,35.8,30.38,South,172,0.0,0.0,75,0.00,,---,0.00,VWS V14.01,2013-11-21 21:53:00,
2013-11-21 16:54:00,43.1,35.7,30.38,South,172,0.0,0.0,75,0.00,,---,0.00,VWS V14.01,2013-11-21 21:54:00,
2013-11-21 16:56:00,42.9,35.5,30.38,South,172,0.0,0.0,75,0.00,,---,0.00,VWS V14.01,2013-11-21 21:56:00,
2013-11-21 16:57:00,42.9,35.5,30.38,South,172,0.0,0.0,75,0.00,,---,0.00,VWS V14.01,2013-11-21 21:57:00,
2013-11-21 16:58:00,42.9,35.5,30.38,South,172,0.0,0.0,75,0.00,,---,0.00,VWS V14.01,2013-11-21 21:58:00,
2013-11-21 16:59:00,42.9,35.9,30.38,South,172,0.0,0.0,76,0.00,,---,0.00,VWS V14.01,2013-11-21 21:59:00,
2013-11-21 17:01:00,42.9,35.5,30.38,South,172,0.0,0.0,75,0.00,,---,0.00,VWS V14.01,2013-11-21 22:01:00,
2013-11-21 17:02:00,42.9,35.5,30.38,South,172,0.0,0.0,75,0.00,,---,0.00,VWS V14.01,2013-11-21 22:02:00,
2013-11-21 17:03:00,42.9,35.5,30.38,South,172,0.0,0.0,75,0.00,,---,0.00,VWS V14.01,2013-11-21 22:03:00,
2013-11-21 17:04:00,42.8,35.4,30.38,South,172,0.0,0.0,75,0.00,,---,0.00,VWS V14.01,2013-11-21 22:04:00,
2013-11-21 17:06:00,42.6,35.2,30.38,South,172,0.0,0.0,75,0.00,,---,0.00,VWS V14.01,2013-11-21 22:06:00,
2013-11-21 17:07:00,42.5,35.5,30.38,South,172,0.0,0.0,76,0.00,,---,0.00,VWS V14.01,2013-11-21 22:07:00,
2013-11-21 17:09:00,42.3,35.3,30.38,South,172,0.0,0.0,76,0.00,,---,0.00,VWS V14.01,2013-11-21 22:09:00,
2013-11-21 17:11:00,42.3,35.6,30.38,South,172,0.0,0.0,77,0.00,,---,0.00,VWS V14.01,2013-11-21 22:11:00,
2013-11-21 17:12:00,42.2,35.5,30.38,South,172,0.0,0.0,77,0.00,,---,0.00,VWS V14.01,2013-11-21 22:12:00,
2013-11-21 17:14:00,42.2,35.5,30.38,South,172,0.0,0.0,77,0.00,,---,0.00,VWS V14.01,2013-11-21 22:14:00,
2013-11-21 17:16:00,42.3,35.6,30.38,South,172,0.0,0.0,77,0.00,,---,0.00,VWS V14.01,2013-11-21 22:16:00,
2013-11-21 17:17:00,42.3,35.6,30.38,South,172,0.0,0.0,77,0.00,,---,0.00,VWS V14.01,2013-11-21 22:17:00,
2013-11-21 17:19:00,42.5,35.8,30.39,South,172,0.0,0.0,77,0.00,,---,0.00,VWS V14.01,2013-11-21 22:19:00,
2013-11-21 17:20:00,42.6,35.9,30.39,South,172,0.0,0.0,77,0.00,,---,0.00,VWS V14.01,2013-11-21 22:20:00,
2013-11-21 17:21:00,42.6,35.6,30.39,South,172,0.0,0.0,76,0.00,,---,0.00,VWS V14.01,2013-11-21 22:21:00,
2013-11-21 17:22:00,42.6,35.6,30.39,South,172,0.0,0.0,76,0.00,,---,0.00,VWS V14.01,2013-11-21 22:22:00,
2013-11-21 17:24:00,42.5,35.5,30.39,South,172,0.0,0.0,76,0.00,,---,0.00,VWS V14.01,2013-11-21 22:24:00,
2013-11-21 17:25:00,42.3,35.3,30.39,South,172,0.0,0.0,76,0.00,,---,0.00,VWS V14.01,2013-11-21 22:25:00,
2013-11-21 17:26:00,42.3,35.3,30.39,South,172,0.0,0.0,76,0.00,,---,0.00,VWS V14.01,2013-11-21 22:26:00,
2013-11-21 17:27:00,42.2,35.5,30.39,South,172,0.0,0.0,77,0.00,,---,0.00,VWS V14.01,2013-11-21 22:27:00,
2013-11-21 17:29:00,42.2,35.5,30.39,South,172,0.0,0.0,77,0.00,,---,0.00,VWS V14.01,2013-11-21 22:29:00,
2013-11-21 17:30:00,42.1,35.4,30.39,South,172,0.0,0.0,77,0.00,,---,0.00,VWS V14.01,2013-11-21 22:30:00,
2013-11-21 17:31:00,42.1,35.4,30.39,South,172,0.0,0.0,77,0.00,,---,0.00,VWS V14.01,2013-11-21 22:31:00,
2013-11-21 17:32:00,41.9,35.2,30.39,South,172,0.0,0.0,77,0.00,,---,0.00,VWS V14.01,2013-11-21 22:32:00,
2013-11-21 17:34:00,41.6,35.3,30.39,South,172,0.0,0.0,78,0.00,,---,0.00,VWS V14.01,2013-11-21 22:34:00,
2013-11-21 17:35:00,41.6,35.3,30.39,South,172,0.0,0.0,78,0.00,,---,0.00,VWS V14.01,2013-11-21 22:35:00,
2013-11-21 19:05:00,39.2,34.5,30.39,South,180,0.0,0.0,83,0.00,,---,0.00,VWS V14.01,2013-11-22 00:05:00,
2013-11-21 19:10:00,38.6,34.2,30.38,South,172,2.0,2.0,84,0.00,,---,0.00,VWS V14.01,2013-11-22 00:10:00,
2013-11-21 19:15:00,38.8,34.7,30.38,South,172,0.0,0.0,85,0.00,,---,0.00,VWS V14.01,2013-11-22 00:15:00,
2013-11-21 19:21:00,39.2,35.1,30.37,South,172,0.0,0.0,85,0.00,,---,0.00,VWS V14.01,2013-11-22 00:21:00,
2013-11-21 19:26:00,38.9,34.5,30.37,South,172,1.0,2.0,84,0.00,,---,0.00,VWS V14.01,2013-11-22 00:26:00,
2013-11-21 19:31:00,38.9,35.1,30.37,South,172,0.0,0.0,86,0.00,,---,0.00,VWS V14.01,2013-11-22 00:31:00,
2013-11-21 19:36:00,39.5,35.4,30.37,South,172,0.0,0.0,85,0.00,,---,0.00,VWS V14.01,2013-11-22 00:36:00,
2013-11-21 19:41:00,38.5,34.1,30.37,South,172,0.0,0.0,84,0.00,,---,0.00,VWS V14.01,2013-11-22 00:41:00,
2013-11-21 19:46:00,38.2,34.4,30.37,South,172,0.0,0.0,86,0.00,,---,0.00,VWS V14.01,2013-11-22 00:46:00,
2013-11-21 19:47:00,38.0,34.2,30.37,South,172,0.0,0.0,86,0.00,,---,0.00,VWS V14.01,2013-11-22 00:47:00,
2013-11-21 19:51:00,38.0,34.2,30.38,South,172,0.0,0.0,86,0.00,,---,0.00,VWS V14.01,2013-11-22 00:51:00,
2013-11-21 19:52:00,38.2,34.7,30.38,South,172,0.0,0.0,87,0.00,,---,0.00,VWS V14.01,2013-11-22 00:52:00,
2013-11-21 19:56:00,38.0,34.2,30.38,South,172,0.0,0.0,86,0.00,,---,0.00,VWS V14.01,2013-11-22 00:56:00,
2013-11-21 19:57:00,38.0,34.2,30.38,South,172,0.0,0.0,86,0.00,,---,0.00,VWS V14.01,2013-11-22 00:57:00,
2013-11-21 20:01:00,37.8,34.0,30.38,South,172,0.0,0.0,86,0.00,,---,0.00,VWS V14.01,2013-11-22 01:01:00,
2013-11-21 20:02:00,37.6,33.8,30.38,South,172,0.0,0.0,86,0.00,,---,0.00,VWS V14.01,2013-11-22 01:02:00,
2013-11-21 20:06:00,37.8,34.3,30.38,South,172,0.0,0.0,87,0.00,,---,0.00,VWS V14.01,2013-11-22 01:06:00,
2013-11-21 20:07:00,37.8,34.3,30.38,South,172,0.0,0.0,87,0.00,,---,0.00,VWS V14.01,2013-11-22 01:07:00,
2013-11-21 20:11:00,37.8,34.6,30.38,South,172,0.0,0.0,88,0.00,,---,0.00,VWS V14.01,2013-11-22 01:11:00,
2013-11-21 20:12:00,37.8,34.6,30.38,South,172,0.0,0.0,88,0.00,,---,0.00,VWS V14.01,2013-11-22 01:12:00,
2013-11-21 20:16:00,38.0,34.8,30.38,South,172,0.0,0.0,88,0.00,,---,0.00,VWS V14.01,2013-11-22 01:16:00,
2013-11-21 20:17:00,38.0,34.8,30.38,South,172,0.0,0.0,88,0.00,,---,0.00,VWS V14.01,2013-11-22 01:17:00,
2013-11-21 20:21:00,37.8,34.6,30.36,South,172,0.0,0.0,88,0.00,,---,0.00,VWS V14.01,2013-11-22 01:21:00,
2013-11-21 20:22:00,37.8,34.6,30.36,South,172,0.0,0.0,88,0.00,,---,0.00,VWS V14.01,2013-11-22 01:22:00,
2013-11-21 20:26:00,37.8,34.9,30.36,South,172,0.0,0.0,89,0.00,,---,0.00,VWS V14.01,2013-11-22 01:26:00,
2013-11-21 20:27:00,37.8,34.9,30.36,South,172,0.0,0.0,89,0.00,,---,0.00,VWS V14.01,2013-11-22 01:27:00,
2013-11-21 20:31:00,38.2,35.5,30.36,South,172,0.0,0.0,90,0.00,,---,0.00,VWS V14.01,2013-11-22 01:31:00,
2013-11-21 20:32:00,38.3,35.6,30.36,South,172,0.0,0.0,90,0.00,,---,0.00,VWS V14.01,2013-11-22 01:32:00,
2013-11-21 20:36:00,38.9,35.9,30.36,South,172,0.0,0.0,89,0.00,,---,0.00,VWS V14.01,2013-11-22 01:36:00,
2013-11-21 20:37:00,38.9,35.9,30.36,South,172,0.0,0.0,89,0.00,,---,0.00,VWS V14.01,2013-11-22 01:37:00,
2013-11-21 20:41:00,38.5,35.3,30.36,South,172,0.0,0.0,88,0.00,,---,0.00,VWS V14.01,2013-11-22 01:41:00,
2013-11-21 20:42:00,38.3,35.1,30.36,South,172,0.0,0.0,88,0.00,,---,0.00,VWS V14.01,2013-11-22 01:42:00,
2013-11-21 20:43:00,38.0,34.8,30.36,South,172,0.0,0.0,88,0.00,,---,0.00,VWS V14.01,2013-11-22 01:43:00,
2013-11-21 20:46:00,37.3,34.1,30.36,South,172,0.0,0.0,88,0.00,,---,0.00,VWS V14.01,2013-11-22 01:46:00,
2013-11-21 20:47:00,37.2,34.0,30.36,South,172,0.0,0.0,88,0.00,,---,0.00,VWS V14.01,2013-11-22 01:47:00,
2013-11-21 20:48:00,37.0,34.1,30.36,South,172,0.0,0.0,89,0.00,,---,0.00,VWS V14.01,2013-11-22 01:48:00,
2013-11-21 20:51:00,36.9,34.0,30.36,South,172,0.0,0.0,89,0.00,,---,0.00,VWS V14.01,2013-11-22 01:51:00,
2013-11-21 20:52:00,36.9,34.0,30.36,South,172,0.0,0.0,89,0.00,,---,0.00,VWS V14.01,2013-11-22 01:52:00,
2013-11-21 20:53:00,36.8,33.9,30.36,South,172,0.0,0.0,89,0.00,,---,0.00,VWS V14.01,2013-11-22 01:53:00,
2013-11-21 20:56:00,36.8,34.2,30.36,South,172,0.0,0.0,90,0.00,,---,0.00,VWS V14.01,2013-11-22 01:56:00,
2013-11-21 20:57:00,36.8,34.2,30.36,South,172,0.0,0.0,90,0.00,,---,0.00,VWS V14.01,2013-11-22 01:57:00,
2013-11-21 20:58:00,36.6,34.0,30.36,South,172,0.0,0.0,90,0.00,,---,0.00,VWS V14.01,2013-11-22 01:58:00,
2013-11-21 21:01:00,36.5,33.8,30.36,South,172,0.0,0.0,90,0.00,,---,0.00,VWS V14.01,2013-11-22 02:01:00,
2013-11-21 21:02:00,36.5,33.8,30.36,South,172,0.0,0.0,90,0.00,,---,0.00,VWS V14.01,2013-11-22 02:02:00,
2013-11-21 21:03:00,36.5,34.1,30.36,South,172,0.0,0.0,91,0.00,,---,0.00,VWS V14.01,2013-11-22 02:03:00,
2013-11-21 21:06:00,36.5,34.1,30.36,South,172,0.0,0.0,91,0.00,,---,0.00,VWS V14.01,2013-11-22 02:06:00,
2013-11-21 21:07:00,36.5,34.1,30.36,South,172,0.0,0.0,91,0.00,,---,0.00,VWS V14.01,2013-11-22 02:07:00,
2013-11-21 21:08:00,36.6,34.5,30.36,South,172,0.0,0.0,92,0.00,,---,0.00,VWS V14.01,2013-11-22 02:08:00,
2013-11-21 21:09:00,36.6,34.5,30.36,South,172,0.0,0.0,92,0.00,,---,0.00,VWS V14.01,2013-11-22 02:09:00,
2013-11-21 21:13:00,37.2,35.1,30.36,South,172,0.0,0.0,92,0.00,,---,0.00,VWS V14.01,2013-11-22 02:13:00,
2013-11-21 21:14:00,37.2,35.1,30.36,South,172,0.0,0.0,92,0.00,,---,0.00,VWS V14.01,2013-11-22 02:14:00,
2013-11-21 21:18:00,37.3,35.2,30.35,South,172,0.0,0.0,92,0.00,,---,0.00,VWS V14.01,2013-11-22 02:18:00,
2013-11-21 21:19:00,37.3,35.2,30.35,South,172,0.0,0.0,92,0.00,,---,0.00,VWS V14.01,2013-11-22 02:19:00,
2013-11-21 21:23:00,37.5,35.4,30.35,South,172,0.0,0.0,92,0.00,,---,0.00,VWS V14.01,2013-11-22 02:23:00,
2013-11-21 21:24:00,37.5,35.4,30.35,South,172,0.0,0.0,92,0.00,,---,0.00,VWS V14.01,2013-11-22 02:24:00,
2013-11-21 21:28:00,37.9,36.1,30.35,South,172,0.0,0.0,93,0.00,,---,0.00,VWS V14.01,2013-11-22 02:28:00,
2013-11-21 21:29:00,37.9,36.1,30.35,South,172,0.0,0.0,93,0.00,,---,0.00,VWS V14.01,2013-11-22 02:29:00,
2013-11-21 21:30:00,37.9,36.1,30.35,South,172,0.0,0.0,93,0.00,,---,0.00,VWS V14.01,2013-11-22 02:30:00,
2013-11-21 21:33:00,38.2,36.4,30.36,South,172,0.0,0.0,93,0.00,,---,0.00,VWS V14.01,2013-11-22 02:33:00,
2013-11-21 21:34:00,38.3,36.5,30.36,South,172,0.0,0.0,93,0.00,,---,0.00,VWS V14.01,2013-11-22 02:34:00,
2013-11-21 21:35:00,38.3,36.5,30.36,South,172,0.0,0.0,93,0.00,,---,0.00,VWS V14.01,2013-11-22 02:35:00,
2013-11-21 21:38:00,38.3,36.2,30.36,South,172,0.0,0.0,92,0.00,,---,0.00,VWS V14.01,2013-11-22 02:38:00,
2013-11-21 21:39:00,38.3,36.2,30.36,South,172,0.0,0.0,92,0.00,,---,0.00,VWS V14.01,2013-11-22 02:39:00,
2013-11-21 21:40:00,38.5,36.4,30.36,South,172,0.0,0.0,92,0.00,,---,0.00,VWS V14.01,2013-11-22 02:40:00,
2013-11-21 21:43:00,38.8,36.7,30.36,South,172,0.0,0.0,92,0.00,,---,0.00,VWS V14.01,2013-11-22 02:43:00,
2013-11-21 21:44:00,38.9,36.8,30.36,South,172,0.0,0.0,92,0.00,,---,0.00,VWS V14.01,2013-11-22 02:44:00,
2013-11-21 21:45:00,38.9,36.8,30.36,South,172,0.0,0.0,92,0.00,,---,0.00,VWS V14.01,2013-11-22 02:45:00,
2013-11-21 21:49:00,38.9,36.5,30.35,South,172,0.0,0.0,91,0.00,,---,0.00,VWS V14.01,2013-11-22 02:49:00,
2013-11-21 21:50:00,38.9,36.5,30.35,South,172,0.0,0.0,91,0.00,,---,0.00,VWS V14.01,2013-11-22 02:50:00,
2013-11-21 21:54:00,38.8,36.1,30.35,South,172,0.0,0.0,90,0.00,,---,0.00,VWS V14.01,2013-11-22 02:54:00,
2013-11-21 21:55:00,38.8,36.4,30.35,South,172,0.0,0.0,91,0.00,,---,0.00,VWS V14.01,2013-11-22 02:55:00,
2013-11-21 21:59:00,38.9,36.2,30.35,South,172,0.0,0.0,90,0.00,,---,0.00,VWS V14.01,2013-11-22 02:59:00,
2013-11-21 22:00:00,38.9,36.2,30.35,South,172,0.0,0.0,90,0.00,,---,0.00,VWS V14.01,2013-11-22 03:00:00,
2013-11-21 22:04:00,39.2,36.5,30.34,South,172,0.0,0.0,90,0.00,,---,0.00,VWS V14.01,2013-11-22 03:04:00,
2013-11-21 22:05:00,39.2,36.5,30.34,South,172,0.0,0.0,90,0.00,,---,0.00,VWS V14.01,2013-11-22 03:05:00,
2013-11-21 22:09:00,39.8,37.1,30.34,South,172,0.0,1.0,90,0.00,,---,0.00,VWS V14.01,2013-11-22 03:09:00,
2013-11-21 22:10:00,39.8,37.1,30.34,South,172,0.0,0.0,90,0.00,,---,0.00,VWS V14.01,2013-11-22 03:10:00,
2013-11-21 22:14:00,40.2,37.5,30.34,South,172,2.0,2.0,90,0.00,,---,0.00,VWS V14.01,2013-11-22 03:14:00,
2013-11-21 22:15:00,40.3,37.3,30.34,South,172,0.0,1.0,89,0.00,,---,0.00,VWS V14.01,2013-11-22 03:15:00,
2013-11-21 22:19:00,40.6,37.6,30.33,South,172,0.0,1.0,89,0.00,,---,0.00,VWS V14.01,2013-11-22 03:19:00,
2013-11-21 22:20:00,40.8,37.8,30.33,South,172,0.0,0.0,89,0.00,,---,0.00,VWS V14.01,2013-11-22 03:20:00,
2013-11-21 22:21:00,40.8,37.8,30.33,South,172,0.0,0.0,89,0.00,,---,0.00,VWS V14.01,2013-11-22 03:21:00,
2013-11-21 22:24:00,41.2,37.9,30.33,South,172,0.0,0.0,88,0.00,,---,0.00,VWS V14.01,2013-11-22 03:24:00,
2013-11-21 22:25:00,41.3,37.7,30.33,South,172,0.0,0.0,87,0.00,,---,0.00,VWS V14.01,2013-11-22 03:25:00,
2013-11-21 22:26:00,41.3,37.7,30.33,South,172,0.0,0.0,87,0.00,,---,0.00,VWS V14.01,2013-11-22 03:26:00,
2013-11-21 22:29:00,41.6,37.7,30.33,South,172,0.0,0.0,86,0.00,,---,0.00,VWS V14.01,2013-11-22 03:29:00,
2013-11-21 22:30:00,41.8,37.9,30.33,South,172,0.0,1.0,86,0.00,,---,0.00,VWS V14.01,2013-11-22 03:30:00,
2013-11-21 22:31:00,41.8,37.9,30.33,South,172,0.0,1.0,86,0.00,,---,0.00,VWS V14.01,2013-11-22 03:31:00,
2013-11-21 22:34:00,42.1,37.9,30.33,South,172,0.0,0.0,85,0.00,,---,0.00,VWS V14.01,2013-11-22 03:34:00,
2013-11-21 22:35:00,42.1,37.9,30.33,South,172,0.0,0.0,85,0.00,,---,0.00,VWS V14.01,2013-11-22 03:35:00,
2013-11-21 22:36:00,42.1,37.9,30.33,South,172,0.0,0.0,85,0.00,,---,0.00,VWS V14.01,2013-11-22 03:36:00,
2013-11-21 22:39:00,42.2,37.7,30.33,South,172,0.0,0.0,84,0.00,,---,0.00,VWS V14.01,2013-11-22 03:39:00,
2013-11-21 22:40:00,42.2,37.7,30.33,South,172,0.0,0.0,84,0.00,,---,0.00,VWS V14.01,2013-11-22 03:40:00,
2013-11-21 22:41:00,42.2,37.7,30.33,South,172,2.0,2.0,84,0.00,,---,0.00,VWS V14.01,2013-11-22 03:41:00,
2013-11-21 22:44:00,42.3,37.8,30.33,South,172,0.0,0.0,84,0.00,,---,0.00,VWS V14.01,2013-11-22 03:44:00,
2013-11-21 22:45:00,42.3,37.8,30.33,South,172,1.0,2.0,84,0.00,,---,0.00,VWS V14.01,2013-11-22 03:45:00,
2013-11-21 22:46:00,42.3,37.8,30.33,South,172,1.0,4.0,84,0.00,,---,0.00,VWS V14.01,2013-11-22 03:46:00,
2013-11-21 22:49:00,42.3,37.8,30.33,South,172,0.0,0.0,84,0.00,,---,0.00,VWS V14.01,2013-11-22 03:49:00,
2013-11-21 22:50:00,42.3,37.8,30.33,South,172,0.0,0.0,84,0.00,,---,0.00,VWS V14.01,2013-11-22 03:50:00,
2013-11-21 22:51:00,42.5,38.0,30.33,South,172,0.0,0.0,84,0.00,,---,0.00,VWS V14.01,2013-11-22 03:51:00,
2013-11-21 22:54:00,42.3,37.5,30.33,South,172,0.0,0.0,83,0.00,,---,0.00,VWS V14.01,2013-11-22 03:54:00,
2013-11-21 22:55:00,42.3,37.5,30.33,South,172,1.0,1.0,83,0.00,,---,0.00,VWS V14.01,2013-11-22 03:55:00,
2013-11-21 22:56:00,42.3,37.5,30.33,South,172,2.0,2.0,83,0.00,,---,0.00,VWS V14.01,2013-11-22 03:56:00,
2013-11-21 23:00:00,42.5,37.7,30.33,South,172,0.0,0.0,83,0.00,,---,0.00,VWS V14.01,2013-11-22 04:00:00,
2013-11-21 23:01:00,42.5,37.7,30.33,South,172,0.0,3.0,83,0.00,,---,0.00,VWS V14.01,2013-11-22 04:01:00,
2013-11-21 23:05:00,42.5,37.7,30.32,South,172,0.0,1.0,83,0.00,,---,0.00,VWS V14.01,2013-11-22 04:05:00,
2013-11-21 23:07:00,42.5,37.7,30.32,South,172,0.0,0.0,83,0.00,,---,0.00,VWS V14.01,2013-11-22 04:07:00,
2013-11-21 23:10:00,42.6,37.5,30.32,South,172,0.0,0.0,82,0.00,,---,0.00,VWS V14.01,2013-11-22 04:10:00,
2013-11-21 23:12:00,42.6,37.5,30.32,South,172,0.0,0.0,82,0.00,,---,0.00,VWS V14.01,2013-11-22 04:12:00,
2013-11-21 23:15:00,42.6,37.5,30.32,South,172,0.0,1.0,82,0.00,,---,0.00,VWS V14.01,2013-11-22 04:15:00,
2013-11-21 23:17:00,42.6,37.5,30.32,South,172,0.0,0.0,82,0.00,,---,0.00,VWS V14.01,2013-11-22 04:17:00,
2013-11-21 23:20:00,42.6,37.5,30.31,South,172,0.0,0.0,82,0.00,,---,0.00,VWS V14.01,2013-11-22 04:20:00,
2013-11-21 23:22:00,42.6,37.5,30.31,South,172,0.0,1.0,82,0.00,,---,0.00,VWS V14.01,2013-11-22 04:22:00,
2013-11-21 23:25:00,42.6,37.5,30.31,South,172,2.0,2.0,82,0.00,,---,0.00,VWS V14.01,2013-11-22 04:25:00,
2013-11-21 23:26:00,42.8,37.7,30.31,South,172,0.0,1.0,82,0.00,,---,0.00,VWS V14.01,2013-11-22 04:26:00,
2013-11-21 23:27:00,42.8,37.7,30.31,South,172,0.0,1.0,82,0.00,,---,0.00,VWS V14.01,2013-11-22 04:27:00,
2013-11-21 23:30:00,42.8,37.7,30.31,South,172,3.0,3.0,82,0.00,,---,0.00,VWS V14.01,2013-11-22 04:30:00,
2013-11-21 23:31:00,42.8,37.7,30.31,South,172,0.0,2.0,82,0.00,,---,0.00,VWS V14.01,2013-11-22 04:31:00,
2013-11-21 23:32:00,42.8,37.7,30.31,South,172,0.0,0.0,82,0.00,,---,0.00,VWS V14.01,2013-11-22 04:32:00,
2013-11-21 23:35:00,42.8,37.7,30.31,South,172,0.0,4.0,82,0.00,,---,0.00,VWS V14.01,2013-11-22 04:35:00,
2013-11-21 23:36:00,42.8,37.7,30.31,South,172,0.0,1.0,82,0.00,,---,0.00,VWS V14.01,2013-11-22 04:36:00,
2013-11-21 23:37:00,42.8,37.7,30.31,South,172,0.0,0.0,82,0.00,,---,0.00,VWS V14.01,2013-11-22 04:37:00,
2013-11-21 23:40:00,42.8,37.7,30.31,South,172,0.0,0.0,82,0.00,,---,0.00,VWS V14.01,2013-11-22 04:40:00,
2013-11-21 23:41:00,42.8,37.7,30.31,South,172,0.0,0.0,82,0.00,,---,0.00,VWS V14.01,2013-11-22 04:41:00,
2013-11-21 23:42:00,42.8,37.7,30.31,South,172,2.0,2.0,82,0.00,,---,0.00,VWS V14.01,2013-11-22 04:42:00,
2013-11-21 23:45:00,42.8,37.7,30.31,South,172,0.0,2.0,82,0.00,,---,0.00,VWS V14.01,2013-11-22 04:45:00,
2013-11-21 23:46:00,42.8,37.7,30.31,South,172,0.0,0.0,82,0.00,,---,0.00,VWS V14.01,2013-11-22 04:46:00,
2013-11-21 23:47:00,42.8,37.7,30.31,South,172,0.0,3.0,82,0.00,,---,0.00,VWS V14.01,2013-11-22 04:47:00,
2013-11-21 23:50:00,42.6,37.5,30.31,South,172,0.0,3.0,82,0.00,,---,0.00,VWS V14.01,2013-11-22 04:50:00,
2013-11-21 23:51:00,42.6,37.5,30.31,South,172,0.0,1.0,82,0.00,,---,0.00,VWS V14.01,2013-11-22 04:51:00,
2013-11-21 23:52:00,42.6,37.5,30.31,South,172,0.0,0.0,82,0.00,,---,0.00,VWS V14.01,2013-11-22 04:52:00,
2013-11-21 23:55:00,42.5,37.4,30.31,South,172,0.0,0.0,82,0.00,,---,0.00,VWS V14.01,2013-11-22 04:55:00,
2013-11-21 23:56:00,42.5,37.4,30.31,South,172,0.0,0.0,82,0.00,,---,0.00,VWS V14.01,2013-11-22 04:56:00,
2013-11-21 23:57:00,42.5,37.4,30.31,South,172,0.0,0.0,82,0.00,,---,0.00,VWS V14.01,2013-11-22 04:57:00,
2013-11-21 23:58:00,42.5,37.4,30.31,South,172,0.0,0.0,82,0.00,,---,0.00,VWS V14.01,2013-11-22 04:58:00,